<?xml version="1.0" encoding="UTF-8" standalone="no" ?>
<gpx xmlns="http://www.topografix.com/GPX/1/1" xmlns:xsi="http://www.w3.org/2001/XMLSchema-instance" xsi:schemaLocation="http://www.topografix.com/GPX/1/1 http://www.topografix.com/GPX/1/1/gpx.xsd" version="1.1" creator="VisuGPX - https://www.visugpx.com">
  <metadata>
    <name>GT VTT de l\'Ardèche</name>
    <desc><![CDATA[200kms en 4j
niveau facile
parfois de bonnes descentes
paysages     ]]></desc>
  </metadata>
  <trk>
    <name><![CDATA[14 JUIL 2014 08:47]]></name>
    <trkseg>
      <trkpt lat="44.4355" lon="4.15596">
        <ele>294</ele>
        <time>2014-07-14T06:47:36Z</time>
      </trkpt>
      <trkpt lat="44.43548" lon="4.15596">
        <ele>294</ele>
        <time>2014-07-14T06:48:10Z</time>
      </trkpt>
      <trkpt lat="44.4355" lon="4.15593">
        <ele>294</ele>
        <time>2014-07-14T06:49:22Z</time>
      </trkpt>
      <trkpt lat="44.4355" lon="4.15595">
        <ele>294</ele>
        <time>2014-07-14T06:49:47Z</time>
      </trkpt>
      <trkpt lat="44.43555" lon="4.15601">
        <ele>294</ele>
        <time>2014-07-14T06:49:50Z</time>
      </trkpt>
      <trkpt lat="44.4362" lon="4.15711">
        <ele>291</ele>
        <time>2014-07-14T06:50:16Z</time>
      </trkpt>
      <trkpt lat="44.43622" lon="4.15717">
        <ele>291</ele>
        <time>2014-07-14T06:50:17Z</time>
      </trkpt>
      <trkpt lat="44.43614" lon="4.15785">
        <ele>285</ele>
        <time>2014-07-14T06:50:27Z</time>
      </trkpt>
      <trkpt lat="44.43607" lon="4.15798">
        <ele>284</ele>
        <time>2014-07-14T06:50:29Z</time>
      </trkpt>
      <trkpt lat="44.43603" lon="4.15804">
        <ele>284</ele>
        <time>2014-07-14T06:50:30Z</time>
      </trkpt>
      <trkpt lat="44.4359" lon="4.15826">
        <ele>282</ele>
        <time>2014-07-14T06:50:33Z</time>
      </trkpt>
      <trkpt lat="44.43573" lon="4.15857">
        <ele>277</ele>
        <time>2014-07-14T06:50:37Z</time>
      </trkpt>
      <trkpt lat="44.43559" lon="4.15885">
        <ele>276</ele>
        <time>2014-07-14T06:50:41Z</time>
      </trkpt>
      <trkpt lat="44.43554" lon="4.15896">
        <ele>276</ele>
        <time>2014-07-14T06:50:43Z</time>
      </trkpt>
      <trkpt lat="44.4348" lon="4.15964">
        <ele>269</ele>
        <time>2014-07-14T06:50:56Z</time>
      </trkpt>
      <trkpt lat="44.43389" lon="4.16021">
        <ele>266</ele>
        <time>2014-07-14T06:51:10Z</time>
      </trkpt>
      <trkpt lat="44.4319" lon="4.16094">
        <ele>262</ele>
        <time>2014-07-14T06:51:39Z</time>
      </trkpt>
      <trkpt lat="44.43183" lon="4.16095">
        <ele>262</ele>
        <time>2014-07-14T06:51:40Z</time>
      </trkpt>
      <trkpt lat="44.43083" lon="4.16106">
        <ele>261</ele>
        <time>2014-07-14T06:51:57Z</time>
      </trkpt>
      <trkpt lat="44.43005" lon="4.16091">
        <ele>261</ele>
        <time>2014-07-14T06:52:14Z</time>
      </trkpt>
      <trkpt lat="44.42943" lon="4.16112">
        <ele>263</ele>
        <time>2014-07-14T06:52:27Z</time>
      </trkpt>
      <trkpt lat="44.42757" lon="4.16148">
        <ele>262</ele>
        <time>2014-07-14T06:53:10Z</time>
      </trkpt>
      <trkpt lat="44.42588" lon="4.16138">
        <ele>261</ele>
        <time>2014-07-14T06:53:45Z</time>
      </trkpt>
      <trkpt lat="44.42554" lon="4.16137">
        <ele>259</ele>
        <time>2014-07-14T06:53:52Z</time>
      </trkpt>
      <trkpt lat="44.42549" lon="4.16135">
        <ele>259</ele>
        <time>2014-07-14T06:53:53Z</time>
      </trkpt>
      <trkpt lat="44.42492" lon="4.16119">
        <ele>255</ele>
        <time>2014-07-14T06:54:02Z</time>
      </trkpt>
      <trkpt lat="44.42442" lon="4.16124">
        <ele>255</ele>
        <time>2014-07-14T06:54:10Z</time>
      </trkpt>
      <trkpt lat="44.4238" lon="4.16181">
        <ele>256</ele>
        <time>2014-07-14T06:54:25Z</time>
      </trkpt>
      <trkpt lat="44.42342" lon="4.16221">
        <ele>256</ele>
        <time>2014-07-14T06:54:35Z</time>
      </trkpt>
      <trkpt lat="44.42337" lon="4.16223">
        <ele>256</ele>
        <time>2014-07-14T06:54:36Z</time>
      </trkpt>
      <trkpt lat="44.42316" lon="4.16254">
        <ele>254</ele>
        <time>2014-07-14T06:54:43Z</time>
      </trkpt>
      <trkpt lat="44.42309" lon="4.163">
        <ele>254</ele>
        <time>2014-07-14T06:54:51Z</time>
      </trkpt>
      <trkpt lat="44.42295" lon="4.16312">
        <ele>253</ele>
        <time>2014-07-14T06:54:56Z</time>
      </trkpt>
      <trkpt lat="44.42291" lon="4.1632">
        <ele>253</ele>
        <time>2014-07-14T06:54:58Z</time>
      </trkpt>
      <trkpt lat="44.4229" lon="4.16332">
        <ele>253</ele>
        <time>2014-07-14T06:55:00Z</time>
      </trkpt>
      <trkpt lat="44.4229" lon="4.1638">
        <ele>256</ele>
        <time>2014-07-14T06:55:09Z</time>
      </trkpt>
      <trkpt lat="44.4232" lon="4.16407">
        <ele>258</ele>
        <time>2014-07-14T06:55:21Z</time>
      </trkpt>
      <trkpt lat="44.42357" lon="4.165">
        <ele>261</ele>
        <time>2014-07-14T06:55:47Z</time>
      </trkpt>
      <trkpt lat="44.42309" lon="4.16615">
        <ele>254</ele>
        <time>2014-07-14T06:56:15Z</time>
      </trkpt>
      <trkpt lat="44.42298" lon="4.16654">
        <ele>253</ele>
        <time>2014-07-14T06:56:49Z</time>
      </trkpt>
      <trkpt lat="44.42281" lon="4.16733">
        <ele>253</ele>
        <time>2014-07-14T06:57:46Z</time>
      </trkpt>
      <trkpt lat="44.42264" lon="4.16765">
        <ele>253</ele>
        <time>2014-07-14T06:57:55Z</time>
      </trkpt>
      <trkpt lat="44.42264" lon="4.1677">
        <ele>254</ele>
        <time>2014-07-14T06:57:56Z</time>
      </trkpt>
      <trkpt lat="44.42271" lon="4.16833">
        <ele>259</ele>
        <time>2014-07-14T06:58:09Z</time>
      </trkpt>
      <trkpt lat="44.42255" lon="4.16885">
        <ele>261</ele>
        <time>2014-07-14T06:58:24Z</time>
      </trkpt>
      <trkpt lat="44.42217" lon="4.16866">
        <ele>246</ele>
        <time>2014-07-14T06:58:35Z</time>
      </trkpt>
      <trkpt lat="44.42207" lon="4.1686">
        <ele>245</ele>
        <time>2014-07-14T06:58:43Z</time>
      </trkpt>
      <trkpt lat="44.42158" lon="4.16874">
        <ele>235</ele>
        <time>2014-07-14T06:58:57Z</time>
      </trkpt>
      <trkpt lat="44.42135" lon="4.16898">
        <ele>233</ele>
        <time>2014-07-14T06:59:03Z</time>
      </trkpt>
      <trkpt lat="44.42118" lon="4.16925">
        <ele>232</ele>
        <time>2014-07-14T06:59:08Z</time>
      </trkpt>
      <trkpt lat="44.42116" lon="4.16933">
        <ele>232</ele>
        <time>2014-07-14T06:59:09Z</time>
      </trkpt>
      <trkpt lat="44.42095" lon="4.17029">
        <ele>232</ele>
        <time>2014-07-14T06:59:21Z</time>
      </trkpt>
      <trkpt lat="44.42099" lon="4.17178">
        <ele>231</ele>
        <time>2014-07-14T06:59:44Z</time>
      </trkpt>
      <trkpt lat="44.42094" lon="4.17245">
        <ele>228</ele>
        <time>2014-07-14T06:59:53Z</time>
      </trkpt>
      <trkpt lat="44.42093" lon="4.17259">
        <ele>226</ele>
        <time>2014-07-14T06:59:55Z</time>
      </trkpt>
      <trkpt lat="44.42095" lon="4.17306">
        <ele>225</ele>
        <time>2014-07-14T07:00:01Z</time>
      </trkpt>
      <trkpt lat="44.42095" lon="4.17313">
        <ele>224</ele>
        <time>2014-07-14T07:00:02Z</time>
      </trkpt>
      <trkpt lat="44.42076" lon="4.17358">
        <ele>210</ele>
        <time>2014-07-14T07:00:15Z</time>
      </trkpt>
      <trkpt lat="44.42081" lon="4.17367">
        <ele>209</ele>
        <time>2014-07-14T07:00:17Z</time>
      </trkpt>
      <trkpt lat="44.42088" lon="4.17379">
        <ele>218</ele>
        <time>2014-07-14T07:00:21Z</time>
      </trkpt>
      <trkpt lat="44.42079" lon="4.17386">
        <ele>208</ele>
        <time>2014-07-14T07:00:26Z</time>
      </trkpt>
      <trkpt lat="44.42059" lon="4.1738">
        <ele>207</ele>
        <time>2014-07-14T07:00:30Z</time>
      </trkpt>
      <trkpt lat="44.42048" lon="4.17379">
        <ele>206</ele>
        <time>2014-07-14T07:00:32Z</time>
      </trkpt>
      <trkpt lat="44.42025" lon="4.1738">
        <ele>204</ele>
        <time>2014-07-14T07:00:36Z</time>
      </trkpt>
      <trkpt lat="44.41995" lon="4.17386">
        <ele>193</ele>
        <time>2014-07-14T07:00:41Z</time>
      </trkpt>
      <trkpt lat="44.41989" lon="4.17387">
        <ele>193</ele>
        <time>2014-07-14T07:00:42Z</time>
      </trkpt>
      <trkpt lat="44.41972" lon="4.17386">
        <ele>192</ele>
        <time>2014-07-14T07:00:45Z</time>
      </trkpt>
      <trkpt lat="44.41946" lon="4.17375">
        <ele>190</ele>
        <time>2014-07-14T07:00:50Z</time>
      </trkpt>
      <trkpt lat="44.41905" lon="4.17374">
        <ele>180</ele>
        <time>2014-07-14T07:00:58Z</time>
      </trkpt>
      <trkpt lat="44.41884" lon="4.1737">
        <ele>179</ele>
        <time>2014-07-14T07:01:02Z</time>
      </trkpt>
      <trkpt lat="44.41873" lon="4.1737">
        <ele>179</ele>
        <time>2014-07-14T07:01:04Z</time>
      </trkpt>
      <trkpt lat="44.41856" lon="4.17362">
        <ele>178</ele>
        <time>2014-07-14T07:01:07Z</time>
      </trkpt>
      <trkpt lat="44.41846" lon="4.17362">
        <ele>177</ele>
        <time>2014-07-14T07:01:09Z</time>
      </trkpt>
      <trkpt lat="44.41808" lon="4.17372">
        <ele>170</ele>
        <time>2014-07-14T07:01:16Z</time>
      </trkpt>
      <trkpt lat="44.41776" lon="4.17383">
        <ele>169</ele>
        <time>2014-07-14T07:01:23Z</time>
      </trkpt>
      <trkpt lat="44.41705" lon="4.1738">
        <ele>161</ele>
        <time>2014-07-14T07:01:35Z</time>
      </trkpt>
      <trkpt lat="44.41669" lon="4.17386">
        <ele>159</ele>
        <time>2014-07-14T07:01:40Z</time>
      </trkpt>
      <trkpt lat="44.41635" lon="4.17396">
        <ele>154</ele>
        <time>2014-07-14T07:01:46Z</time>
      </trkpt>
      <trkpt lat="44.41625" lon="4.174">
        <ele>154</ele>
        <time>2014-07-14T07:01:48Z</time>
      </trkpt>
      <trkpt lat="44.41587" lon="4.17374">
        <ele>153</ele>
        <time>2014-07-14T07:01:55Z</time>
      </trkpt>
      <trkpt lat="44.4158" lon="4.17349">
        <ele>151</ele>
        <time>2014-07-14T07:01:58Z</time>
      </trkpt>
      <trkpt lat="44.41559" lon="4.17259">
        <ele>147</ele>
        <time>2014-07-14T07:02:10Z</time>
      </trkpt>
      <trkpt lat="44.4154" lon="4.17172">
        <ele>146</ele>
        <time>2014-07-14T07:02:21Z</time>
      </trkpt>
      <trkpt lat="44.4154" lon="4.17164">
        <ele>145</ele>
        <time>2014-07-14T07:02:22Z</time>
      </trkpt>
      <trkpt lat="44.41578" lon="4.17032">
        <ele>143</ele>
        <time>2014-07-14T07:02:38Z</time>
      </trkpt>
      <trkpt lat="44.41585" lon="4.16772">
        <ele>137</ele>
        <time>2014-07-14T07:03:05Z</time>
      </trkpt>
      <trkpt lat="44.41557" lon="4.16437">
        <ele>139</ele>
        <time>2014-07-14T07:03:45Z</time>
      </trkpt>
      <trkpt lat="44.41532" lon="4.16181">
        <ele>141</ele>
        <time>2014-07-14T07:04:19Z</time>
      </trkpt>
      <trkpt lat="44.41518" lon="4.16001">
        <ele>139</ele>
        <time>2014-07-14T07:04:42Z</time>
      </trkpt>
      <trkpt lat="44.41557" lon="4.15845">
        <ele>142</ele>
        <time>2014-07-14T07:05:06Z</time>
      </trkpt>
      <trkpt lat="44.41567" lon="4.15823">
        <ele>141</ele>
        <time>2014-07-14T07:05:10Z</time>
      </trkpt>
      <trkpt lat="44.41647" lon="4.15661">
        <ele>140</ele>
        <time>2014-07-14T07:05:39Z</time>
      </trkpt>
      <trkpt lat="44.4165" lon="4.15603">
        <ele>138</ele>
        <time>2014-07-14T07:05:49Z</time>
      </trkpt>
      <trkpt lat="44.41647" lon="4.15598">
        <ele>138</ele>
        <time>2014-07-14T07:05:50Z</time>
      </trkpt>
      <trkpt lat="44.41562" lon="4.1549">
        <ele>137</ele>
        <time>2014-07-14T07:06:14Z</time>
      </trkpt>
      <trkpt lat="44.41494" lon="4.15408">
        <ele>138</ele>
        <time>2014-07-14T07:06:29Z</time>
      </trkpt>
      <trkpt lat="44.41454" lon="4.15377">
        <ele>139</ele>
        <time>2014-07-14T07:06:40Z</time>
      </trkpt>
      <trkpt lat="44.41462" lon="4.15404">
        <ele>139</ele>
        <time>2014-07-14T07:06:45Z</time>
      </trkpt>
      <trkpt lat="44.41469" lon="4.15414">
        <ele>139</ele>
        <time>2014-07-14T07:06:47Z</time>
      </trkpt>
      <trkpt lat="44.41476" lon="4.15561">
        <ele>137</ele>
        <time>2014-07-14T07:07:08Z</time>
      </trkpt>
      <trkpt lat="44.41476" lon="4.15568">
        <ele>137</ele>
        <time>2014-07-14T07:07:09Z</time>
      </trkpt>
      <trkpt lat="44.41462" lon="4.15598">
        <ele>137</ele>
        <time>2014-07-14T07:07:14Z</time>
      </trkpt>
      <trkpt lat="44.41318" lon="4.15787">
        <ele>160</ele>
        <time>2014-07-14T07:07:58Z</time>
      </trkpt>
      <trkpt lat="44.41317" lon="4.15896">
        <ele>164</ele>
        <time>2014-07-14T07:08:28Z</time>
      </trkpt>
      <trkpt lat="44.41311" lon="4.16029">
        <ele>166</ele>
        <time>2014-07-14T07:09:00Z</time>
      </trkpt>
      <trkpt lat="44.41309" lon="4.16173">
        <ele>162</ele>
        <time>2014-07-14T07:09:29Z</time>
      </trkpt>
      <trkpt lat="44.41319" lon="4.16251">
        <ele>158</ele>
        <time>2014-07-14T07:09:46Z</time>
      </trkpt>
      <trkpt lat="44.413" lon="4.16381">
        <ele>163</ele>
        <time>2014-07-14T07:10:20Z</time>
      </trkpt>
      <trkpt lat="44.41279" lon="4.16484">
        <ele>167</ele>
        <time>2014-07-14T07:10:48Z</time>
      </trkpt>
      <trkpt lat="44.4128" lon="4.16607">
        <ele>164</ele>
        <time>2014-07-14T07:11:16Z</time>
      </trkpt>
      <trkpt lat="44.41247" lon="4.16679">
        <ele>167</ele>
        <time>2014-07-14T07:11:30Z</time>
      </trkpt>
      <trkpt lat="44.41235" lon="4.16683">
        <ele>167</ele>
        <time>2014-07-14T07:11:33Z</time>
      </trkpt>
      <trkpt lat="44.41147" lon="4.16653">
        <ele>177</ele>
        <time>2014-07-14T07:12:02Z</time>
      </trkpt>
      <trkpt lat="44.41098" lon="4.1663">
        <ele>179</ele>
        <time>2014-07-14T07:12:20Z</time>
      </trkpt>
      <trkpt lat="44.41056" lon="4.1664">
        <ele>180</ele>
        <time>2014-07-14T07:12:35Z</time>
      </trkpt>
      <trkpt lat="44.41001" lon="4.16651">
        <ele>180</ele>
        <time>2014-07-14T07:12:52Z</time>
      </trkpt>
      <trkpt lat="44.40923" lon="4.16612">
        <ele>185</ele>
        <time>2014-07-14T07:13:21Z</time>
      </trkpt>
      <trkpt lat="44.40855" lon="4.1656">
        <ele>195</ele>
        <time>2014-07-14T07:13:49Z</time>
      </trkpt>
      <trkpt lat="44.40773" lon="4.16528">
        <ele>200</ele>
        <time>2014-07-14T07:14:22Z</time>
      </trkpt>
      <trkpt lat="44.40708" lon="4.1651">
        <ele>200</ele>
        <time>2014-07-14T07:14:51Z</time>
      </trkpt>
      <trkpt lat="44.40644" lon="4.16458">
        <ele>222</ele>
        <time>2014-07-14T07:15:22Z</time>
      </trkpt>
      <trkpt lat="44.40609" lon="4.16476">
        <ele>220</ele>
        <time>2014-07-14T07:15:36Z</time>
      </trkpt>
      <trkpt lat="44.40555" lon="4.16526">
        <ele>210</ele>
        <time>2014-07-14T07:16:00Z</time>
      </trkpt>
      <trkpt lat="44.40484" lon="4.16554">
        <ele>209</ele>
        <time>2014-07-14T07:16:27Z</time>
      </trkpt>
      <trkpt lat="44.40467" lon="4.16535">
        <ele>210</ele>
        <time>2014-07-14T07:16:33Z</time>
      </trkpt>
      <trkpt lat="44.40453" lon="4.16468">
        <ele>227</ele>
        <time>2014-07-14T07:16:47Z</time>
      </trkpt>
      <trkpt lat="44.40436" lon="4.16423">
        <ele>231</ele>
        <time>2014-07-14T07:16:59Z</time>
      </trkpt>
      <trkpt lat="44.40339" lon="4.16438">
        <ele>230</ele>
        <time>2014-07-14T07:17:26Z</time>
      </trkpt>
      <trkpt lat="44.40326" lon="4.16418">
        <ele>235</ele>
        <time>2014-07-14T07:17:33Z</time>
      </trkpt>
      <trkpt lat="44.40358" lon="4.16372">
        <ele>240</ele>
        <time>2014-07-14T07:17:51Z</time>
      </trkpt>
      <trkpt lat="44.40357" lon="4.16373">
        <ele>240</ele>
        <time>2014-07-14T07:18:15Z</time>
      </trkpt>
      <trkpt lat="44.4036" lon="4.16369">
        <ele>240</ele>
        <time>2014-07-14T07:18:39Z</time>
      </trkpt>
      <trkpt lat="44.40351" lon="4.16362">
        <ele>240</ele>
        <time>2014-07-14T07:18:43Z</time>
      </trkpt>
      <trkpt lat="44.403" lon="4.16357">
        <ele>241</ele>
        <time>2014-07-14T07:18:53Z</time>
      </trkpt>
      <trkpt lat="44.40196" lon="4.16393">
        <ele>242</ele>
        <time>2014-07-14T07:19:13Z</time>
      </trkpt>
      <trkpt lat="44.40124" lon="4.16416">
        <ele>243</ele>
        <time>2014-07-14T07:19:33Z</time>
      </trkpt>
      <trkpt lat="44.4012" lon="4.1646">
        <ele>243</ele>
        <time>2014-07-14T07:19:52Z</time>
      </trkpt>
      <trkpt lat="44.4012" lon="4.16468">
        <ele>243</ele>
        <time>2014-07-14T07:20:10Z</time>
      </trkpt>
      <trkpt lat="44.40121" lon="4.16527">
        <ele>244</ele>
        <time>2014-07-14T07:20:26Z</time>
      </trkpt>
      <trkpt lat="44.4014" lon="4.16572">
        <ele>244</ele>
        <time>2014-07-14T07:20:37Z</time>
      </trkpt>
      <trkpt lat="44.40172" lon="4.16647">
        <ele>239</ele>
        <time>2014-07-14T07:20:53Z</time>
      </trkpt>
      <trkpt lat="44.40181" lon="4.16714">
        <ele>236</ele>
        <time>2014-07-14T07:21:06Z</time>
      </trkpt>
      <trkpt lat="44.40185" lon="4.16746">
        <ele>238</ele>
        <time>2014-07-14T07:21:11Z</time>
      </trkpt>
      <trkpt lat="44.40191" lon="4.1678">
        <ele>237</ele>
        <time>2014-07-14T07:21:16Z</time>
      </trkpt>
      <trkpt lat="44.40192" lon="4.16799">
        <ele>237</ele>
        <time>2014-07-14T07:21:19Z</time>
      </trkpt>
      <trkpt lat="44.40201" lon="4.16867">
        <ele>238</ele>
        <time>2014-07-14T07:21:32Z</time>
      </trkpt>
      <trkpt lat="44.40194" lon="4.16922">
        <ele>233</ele>
        <time>2014-07-14T07:21:40Z</time>
      </trkpt>
      <trkpt lat="44.40185" lon="4.16993">
        <ele>230</ele>
        <time>2014-07-14T07:21:48Z</time>
      </trkpt>
      <trkpt lat="44.40177" lon="4.17031">
        <ele>219</ele>
        <time>2014-07-14T07:21:53Z</time>
      </trkpt>
      <trkpt lat="44.40163" lon="4.17064">
        <ele>226</ele>
        <time>2014-07-14T07:21:58Z</time>
      </trkpt>
      <trkpt lat="44.40109" lon="4.17139">
        <ele>221</ele>
        <time>2014-07-14T07:22:11Z</time>
      </trkpt>
      <trkpt lat="44.40119" lon="4.17175">
        <ele>218</ele>
        <time>2014-07-14T07:22:23Z</time>
      </trkpt>
      <trkpt lat="44.40129" lon="4.17236">
        <ele>218</ele>
        <time>2014-07-14T07:22:36Z</time>
      </trkpt>
      <trkpt lat="44.40142" lon="4.17308">
        <ele>225</ele>
        <time>2014-07-14T07:22:51Z</time>
      </trkpt>
      <trkpt lat="44.40132" lon="4.17345">
        <ele>232</ele>
        <time>2014-07-14T07:23:22Z</time>
      </trkpt>
      <trkpt lat="44.40125" lon="4.17393">
        <ele>233</ele>
        <time>2014-07-14T07:23:55Z</time>
      </trkpt>
      <trkpt lat="44.40119" lon="4.17416">
        <ele>233</ele>
        <time>2014-07-14T07:24:07Z</time>
      </trkpt>
      <trkpt lat="44.40085" lon="4.17435">
        <ele>234</ele>
        <time>2014-07-14T07:24:33Z</time>
      </trkpt>
      <trkpt lat="44.40077" lon="4.17439">
        <ele>235</ele>
        <time>2014-07-14T07:24:41Z</time>
      </trkpt>
      <trkpt lat="44.4005" lon="4.17458">
        <ele>234</ele>
        <time>2014-07-14T07:24:57Z</time>
      </trkpt>
      <trkpt lat="44.39983" lon="4.17477">
        <ele>234</ele>
        <time>2014-07-14T07:25:22Z</time>
      </trkpt>
      <trkpt lat="44.39945" lon="4.17495">
        <ele>235</ele>
        <time>2014-07-14T07:25:39Z</time>
      </trkpt>
      <trkpt lat="44.39911" lon="4.17502">
        <ele>236</ele>
        <time>2014-07-14T07:25:51Z</time>
      </trkpt>
      <trkpt lat="44.39884" lon="4.175">
        <ele>234</ele>
        <time>2014-07-14T07:26:03Z</time>
      </trkpt>
      <trkpt lat="44.39845" lon="4.17548">
        <ele>233</ele>
        <time>2014-07-14T07:26:26Z</time>
      </trkpt>
      <trkpt lat="44.3984" lon="4.17561">
        <ele>232</ele>
        <time>2014-07-14T07:26:39Z</time>
      </trkpt>
      <trkpt lat="44.3982" lon="4.17654">
        <ele>228</ele>
        <time>2014-07-14T07:27:13Z</time>
      </trkpt>
      <trkpt lat="44.39818" lon="4.17663">
        <ele>228</ele>
        <time>2014-07-14T07:27:17Z</time>
      </trkpt>
      <trkpt lat="44.39797" lon="4.17694">
        <ele>226</ele>
        <time>2014-07-14T07:27:31Z</time>
      </trkpt>
      <trkpt lat="44.39768" lon="4.17736">
        <ele>225</ele>
        <time>2014-07-14T07:28:07Z</time>
      </trkpt>
      <trkpt lat="44.3976" lon="4.1775">
        <ele>224</ele>
        <time>2014-07-14T07:28:18Z</time>
      </trkpt>
      <trkpt lat="44.39715" lon="4.17811">
        <ele>221</ele>
        <time>2014-07-14T07:28:45Z</time>
      </trkpt>
      <trkpt lat="44.3969" lon="4.17841">
        <ele>218</ele>
        <time>2014-07-14T07:28:58Z</time>
      </trkpt>
      <trkpt lat="44.39679" lon="4.17862">
        <ele>218</ele>
        <time>2014-07-14T07:29:09Z</time>
      </trkpt>
      <trkpt lat="44.39656" lon="4.17884">
        <ele>213</ele>
        <time>2014-07-14T07:29:37Z</time>
      </trkpt>
      <trkpt lat="44.39653" lon="4.17902">
        <ele>212</ele>
        <time>2014-07-14T07:29:56Z</time>
      </trkpt>
      <trkpt lat="44.3966" lon="4.17925">
        <ele>211</ele>
        <time>2014-07-14T07:30:09Z</time>
      </trkpt>
      <trkpt lat="44.39674" lon="4.17967">
        <ele>215</ele>
        <time>2014-07-14T07:30:30Z</time>
      </trkpt>
      <trkpt lat="44.39676" lon="4.17973">
        <ele>215</ele>
        <time>2014-07-14T07:30:33Z</time>
      </trkpt>
      <trkpt lat="44.39681" lon="4.18006">
        <ele>215</ele>
        <time>2014-07-14T07:30:48Z</time>
      </trkpt>
      <trkpt lat="44.39686" lon="4.18013">
        <ele>216</ele>
        <time>2014-07-14T07:31:42Z</time>
      </trkpt>
      <trkpt lat="44.3969" lon="4.18023">
        <ele>216</ele>
        <time>2014-07-14T07:31:55Z</time>
      </trkpt>
      <trkpt lat="44.3969" lon="4.18089">
        <ele>219</ele>
        <time>2014-07-14T07:32:22Z</time>
      </trkpt>
      <trkpt lat="44.39685" lon="4.1812">
        <ele>219</ele>
        <time>2014-07-14T07:32:34Z</time>
      </trkpt>
      <trkpt lat="44.39679" lon="4.18153">
        <ele>221</ele>
        <time>2014-07-14T07:32:46Z</time>
      </trkpt>
      <trkpt lat="44.39653" lon="4.18214">
        <ele>219</ele>
        <time>2014-07-14T07:33:10Z</time>
      </trkpt>
      <trkpt lat="44.39637" lon="4.18275">
        <ele>217</ele>
        <time>2014-07-14T07:33:30Z</time>
      </trkpt>
      <trkpt lat="44.39626" lon="4.18354">
        <ele>216</ele>
        <time>2014-07-14T07:33:49Z</time>
      </trkpt>
      <trkpt lat="44.39606" lon="4.18453">
        <ele>216</ele>
        <time>2014-07-14T07:34:13Z</time>
      </trkpt>
      <trkpt lat="44.39601" lon="4.18487">
        <ele>215</ele>
        <time>2014-07-14T07:34:24Z</time>
      </trkpt>
      <trkpt lat="44.39587" lon="4.18579">
        <ele>211</ele>
        <time>2014-07-14T07:34:56Z</time>
      </trkpt>
      <trkpt lat="44.39577" lon="4.18638">
        <ele>210</ele>
        <time>2014-07-14T07:35:13Z</time>
      </trkpt>
      <trkpt lat="44.39576" lon="4.18713">
        <ele>211</ele>
        <time>2014-07-14T07:35:36Z</time>
      </trkpt>
      <trkpt lat="44.39576" lon="4.18716">
        <ele>211</ele>
        <time>2014-07-14T07:35:37Z</time>
      </trkpt>
      <trkpt lat="44.39576" lon="4.1872">
        <ele>211</ele>
        <time>2014-07-14T07:35:38Z</time>
      </trkpt>
      <trkpt lat="44.3956" lon="4.18759">
        <ele>211</ele>
        <time>2014-07-14T07:35:56Z</time>
      </trkpt>
      <trkpt lat="44.3954" lon="4.18824">
        <ele>211</ele>
        <time>2014-07-14T07:36:32Z</time>
      </trkpt>
      <trkpt lat="44.39538" lon="4.18834">
        <ele>211</ele>
        <time>2014-07-14T07:37:04Z</time>
      </trkpt>
      <trkpt lat="44.39534" lon="4.18837">
        <ele>211</ele>
        <time>2014-07-14T07:38:31Z</time>
      </trkpt>
      <trkpt lat="44.39538" lon="4.18866">
        <ele>211</ele>
        <time>2014-07-14T07:38:43Z</time>
      </trkpt>
      <trkpt lat="44.39561" lon="4.18958">
        <ele>209</ele>
        <time>2014-07-14T07:39:02Z</time>
      </trkpt>
      <trkpt lat="44.39592" lon="4.19076">
        <ele>203</ele>
        <time>2014-07-14T07:39:32Z</time>
      </trkpt>
      <trkpt lat="44.39591" lon="4.191">
        <ele>198</ele>
        <time>2014-07-14T07:39:39Z</time>
      </trkpt>
      <trkpt lat="44.39572" lon="4.19129">
        <ele>197</ele>
        <time>2014-07-14T07:39:57Z</time>
      </trkpt>
      <trkpt lat="44.39572" lon="4.19128">
        <ele>197</ele>
        <time>2014-07-14T07:40:20Z</time>
      </trkpt>
      <trkpt lat="44.39547" lon="4.19148">
        <ele>196</ele>
        <time>2014-07-14T07:40:36Z</time>
      </trkpt>
      <trkpt lat="44.39495" lon="4.19182">
        <ele>191</ele>
        <time>2014-07-14T07:40:46Z</time>
      </trkpt>
      <trkpt lat="44.39466" lon="4.19201">
        <ele>189</ele>
        <time>2014-07-14T07:40:52Z</time>
      </trkpt>
      <trkpt lat="44.39448" lon="4.19216">
        <ele>188</ele>
        <time>2014-07-14T07:40:56Z</time>
      </trkpt>
      <trkpt lat="44.39396" lon="4.19232">
        <ele>190</ele>
        <time>2014-07-14T07:41:16Z</time>
      </trkpt>
      <trkpt lat="44.39382" lon="4.19234">
        <ele>191</ele>
        <time>2014-07-14T07:41:21Z</time>
      </trkpt>
      <trkpt lat="44.39358" lon="4.19203">
        <ele>191</ele>
        <time>2014-07-14T07:41:36Z</time>
      </trkpt>
      <trkpt lat="44.39339" lon="4.19216">
        <ele>192</ele>
        <time>2014-07-14T07:41:51Z</time>
      </trkpt>
      <trkpt lat="44.39338" lon="4.19218">
        <ele>192</ele>
        <time>2014-07-14T07:41:52Z</time>
      </trkpt>
      <trkpt lat="44.39312" lon="4.19244">
        <ele>194</ele>
        <time>2014-07-14T07:42:12Z</time>
      </trkpt>
      <trkpt lat="44.39285" lon="4.19272">
        <ele>195</ele>
        <time>2014-07-14T07:42:31Z</time>
      </trkpt>
      <trkpt lat="44.39231" lon="4.19333">
        <ele>194</ele>
        <time>2014-07-14T07:42:53Z</time>
      </trkpt>
      <trkpt lat="44.39214" lon="4.19361">
        <ele>188</ele>
        <time>2014-07-14T07:42:59Z</time>
      </trkpt>
      <trkpt lat="44.39182" lon="4.19409">
        <ele>183</ele>
        <time>2014-07-14T07:43:06Z</time>
      </trkpt>
      <trkpt lat="44.39167" lon="4.19432">
        <ele>178</ele>
        <time>2014-07-14T07:43:10Z</time>
      </trkpt>
      <trkpt lat="44.39167" lon="4.19432">
        <ele>180</ele>
        <time>2014-07-14T07:43:48Z</time>
      </trkpt>
      <trkpt lat="44.3914" lon="4.19469">
        <ele>177</ele>
        <time>2014-07-14T07:44:12Z</time>
      </trkpt>
      <trkpt lat="44.39103" lon="4.19574">
        <ele>177</ele>
        <time>2014-07-14T07:44:39Z</time>
      </trkpt>
      <trkpt lat="44.39095" lon="4.19588">
        <ele>179</ele>
        <time>2014-07-14T07:44:42Z</time>
      </trkpt>
      <trkpt lat="44.39064" lon="4.19681">
        <ele>182</ele>
        <time>2014-07-14T07:45:07Z</time>
      </trkpt>
      <trkpt lat="44.39058" lon="4.19738">
        <ele>182</ele>
        <time>2014-07-14T07:45:20Z</time>
      </trkpt>
      <trkpt lat="44.39022" lon="4.19794">
        <ele>181</ele>
        <time>2014-07-14T07:45:31Z</time>
      </trkpt>
      <trkpt lat="44.38963" lon="4.1988">
        <ele>175</ele>
        <time>2014-07-14T07:45:52Z</time>
      </trkpt>
      <trkpt lat="44.389" lon="4.19956">
        <ele>170</ele>
        <time>2014-07-14T07:46:13Z</time>
      </trkpt>
      <trkpt lat="44.38865" lon="4.19993">
        <ele>168</ele>
        <time>2014-07-14T07:46:24Z</time>
      </trkpt>
      <trkpt lat="44.38851" lon="4.20007">
        <ele>167</ele>
        <time>2014-07-14T07:46:27Z</time>
      </trkpt>
      <trkpt lat="44.38839" lon="4.20023">
        <ele>167</ele>
        <time>2014-07-14T07:46:30Z</time>
      </trkpt>
      <trkpt lat="44.38812" lon="4.20055">
        <ele>164</ele>
        <time>2014-07-14T07:46:36Z</time>
      </trkpt>
      <trkpt lat="44.38773" lon="4.2007">
        <ele>162</ele>
        <time>2014-07-14T07:46:43Z</time>
      </trkpt>
      <trkpt lat="44.38732" lon="4.20081">
        <ele>160</ele>
        <time>2014-07-14T07:46:55Z</time>
      </trkpt>
      <trkpt lat="44.38697" lon="4.20087">
        <ele>159</ele>
        <time>2014-07-14T07:47:06Z</time>
      </trkpt>
      <trkpt lat="44.38685" lon="4.20084">
        <ele>159</ele>
        <time>2014-07-14T07:47:14Z</time>
      </trkpt>
      <trkpt lat="44.38623" lon="4.20082">
        <ele>157</ele>
        <time>2014-07-14T07:47:47Z</time>
      </trkpt>
      <trkpt lat="44.38578" lon="4.20065">
        <ele>154</ele>
        <time>2014-07-14T07:48:01Z</time>
      </trkpt>
      <trkpt lat="44.38526" lon="4.2006">
        <ele>153</ele>
        <time>2014-07-14T07:48:13Z</time>
      </trkpt>
      <trkpt lat="44.38507" lon="4.20058">
        <ele>153</ele>
        <time>2014-07-14T07:48:18Z</time>
      </trkpt>
      <trkpt lat="44.38426" lon="4.20049">
        <ele>150</ele>
        <time>2014-07-14T07:48:38Z</time>
      </trkpt>
      <trkpt lat="44.38408" lon="4.20047">
        <ele>148</ele>
        <time>2014-07-14T07:48:42Z</time>
      </trkpt>
      <trkpt lat="44.38391" lon="4.2005">
        <ele>148</ele>
        <time>2014-07-14T07:48:46Z</time>
      </trkpt>
      <trkpt lat="44.38322" lon="4.20047">
        <ele>147</ele>
        <time>2014-07-14T07:49:01Z</time>
      </trkpt>
      <trkpt lat="44.38288" lon="4.20047">
        <ele>147</ele>
        <time>2014-07-14T07:49:08Z</time>
      </trkpt>
      <trkpt lat="44.38228" lon="4.20035">
        <ele>147</ele>
        <time>2014-07-14T07:49:26Z</time>
      </trkpt>
      <trkpt lat="44.38184" lon="4.19983">
        <ele>148</ele>
        <time>2014-07-14T07:49:44Z</time>
      </trkpt>
      <trkpt lat="44.38133" lon="4.19944">
        <ele>146</ele>
        <time>2014-07-14T07:49:59Z</time>
      </trkpt>
      <trkpt lat="44.38132" lon="4.1994">
        <ele>146</ele>
        <time>2014-07-14T07:50:02Z</time>
      </trkpt>
      <trkpt lat="44.38128" lon="4.19933">
        <ele>146</ele>
        <time>2014-07-14T07:50:17Z</time>
      </trkpt>
      <trkpt lat="44.38067" lon="4.19931">
        <ele>142</ele>
        <time>2014-07-14T07:50:37Z</time>
      </trkpt>
      <trkpt lat="44.38039" lon="4.19957">
        <ele>142</ele>
        <time>2014-07-14T07:50:49Z</time>
      </trkpt>
      <trkpt lat="44.38033" lon="4.19962">
        <ele>142</ele>
        <time>2014-07-14T07:50:51Z</time>
      </trkpt>
      <trkpt lat="44.38006" lon="4.19964">
        <ele>141</ele>
        <time>2014-07-14T07:51:02Z</time>
      </trkpt>
      <trkpt lat="44.37964" lon="4.19969">
        <ele>137</ele>
        <time>2014-07-14T07:51:12Z</time>
      </trkpt>
      <trkpt lat="44.3794" lon="4.1997">
        <ele>136</ele>
        <time>2014-07-14T07:51:17Z</time>
      </trkpt>
      <trkpt lat="44.3789" lon="4.19988">
        <ele>135</ele>
        <time>2014-07-14T07:51:30Z</time>
      </trkpt>
      <trkpt lat="44.37813" lon="4.19987">
        <ele>134</ele>
        <time>2014-07-14T07:51:46Z</time>
      </trkpt>
      <trkpt lat="44.37765" lon="4.19988">
        <ele>134</ele>
        <time>2014-07-14T07:51:55Z</time>
      </trkpt>
      <trkpt lat="44.37662" lon="4.19979">
        <ele>132</ele>
        <time>2014-07-14T07:52:27Z</time>
      </trkpt>
      <trkpt lat="44.3764" lon="4.19993">
        <ele>132</ele>
        <time>2014-07-14T07:52:56Z</time>
      </trkpt>
      <trkpt lat="44.37638" lon="4.19993">
        <ele>132</ele>
        <time>2014-07-14T07:52:57Z</time>
      </trkpt>
      <trkpt lat="44.37544" lon="4.20025">
        <ele>132</ele>
        <time>2014-07-14T07:53:30Z</time>
      </trkpt>
      <trkpt lat="44.37512" lon="4.20029">
        <ele>133</ele>
        <time>2014-07-14T07:53:40Z</time>
      </trkpt>
      <trkpt lat="44.37508" lon="4.20076">
        <ele>132</ele>
        <time>2014-07-14T07:53:49Z</time>
      </trkpt>
      <trkpt lat="44.37507" lon="4.20105">
        <ele>131</ele>
        <time>2014-07-14T07:53:53Z</time>
      </trkpt>
      <trkpt lat="44.37506" lon="4.2011">
        <ele>131</ele>
        <time>2014-07-14T07:53:54Z</time>
      </trkpt>
      <trkpt lat="44.37478" lon="4.2012">
        <ele>130</ele>
        <time>2014-07-14T07:54:04Z</time>
      </trkpt>
      <trkpt lat="44.37474" lon="4.20129">
        <ele>130</ele>
        <time>2014-07-14T07:54:07Z</time>
      </trkpt>
      <trkpt lat="44.37473" lon="4.20132">
        <ele>130</ele>
        <time>2014-07-14T07:54:08Z</time>
      </trkpt>
      <trkpt lat="44.37464" lon="4.20281">
        <ele>127</ele>
        <time>2014-07-14T07:54:36Z</time>
      </trkpt>
      <trkpt lat="44.37473" lon="4.20354">
        <ele>126</ele>
        <time>2014-07-14T07:54:49Z</time>
      </trkpt>
      <trkpt lat="44.37473" lon="4.2036">
        <ele>126</ele>
        <time>2014-07-14T07:54:50Z</time>
      </trkpt>
      <trkpt lat="44.37481" lon="4.20579">
        <ele>126</ele>
        <time>2014-07-14T07:55:25Z</time>
      </trkpt>
      <trkpt lat="44.37471" lon="4.20762">
        <ele>124</ele>
        <time>2014-07-14T07:55:58Z</time>
      </trkpt>
      <trkpt lat="44.37476" lon="4.20872">
        <ele>124</ele>
        <time>2014-07-14T07:56:20Z</time>
      </trkpt>
      <trkpt lat="44.3748" lon="4.20906">
        <ele>124</ele>
        <time>2014-07-14T07:56:25Z</time>
      </trkpt>
      <trkpt lat="44.37523" lon="4.20983">
        <ele>122</ele>
        <time>2014-07-14T07:56:40Z</time>
      </trkpt>
      <trkpt lat="44.37543" lon="4.21016">
        <ele>122</ele>
        <time>2014-07-14T07:56:51Z</time>
      </trkpt>
      <trkpt lat="44.37549" lon="4.21029">
        <ele>122</ele>
        <time>2014-07-14T07:57:08Z</time>
      </trkpt>
      <trkpt lat="44.37594" lon="4.21093">
        <ele>123</ele>
        <time>2014-07-14T07:57:39Z</time>
      </trkpt>
      <trkpt lat="44.37648" lon="4.21126">
        <ele>122</ele>
        <time>2014-07-14T07:57:55Z</time>
      </trkpt>
      <trkpt lat="44.37722" lon="4.21254">
        <ele>123</ele>
        <time>2014-07-14T07:58:24Z</time>
      </trkpt>
      <trkpt lat="44.37749" lon="4.2134">
        <ele>124</ele>
        <time>2014-07-14T07:58:40Z</time>
      </trkpt>
      <trkpt lat="44.37758" lon="4.21373">
        <ele>123</ele>
        <time>2014-07-14T07:58:46Z</time>
      </trkpt>
      <trkpt lat="44.3779" lon="4.21429">
        <ele>122</ele>
        <time>2014-07-14T07:59:00Z</time>
      </trkpt>
      <trkpt lat="44.37788" lon="4.21486">
        <ele>122</ele>
        <time>2014-07-14T07:59:12Z</time>
      </trkpt>
      <trkpt lat="44.37787" lon="4.21501">
        <ele>122</ele>
        <time>2014-07-14T07:59:16Z</time>
      </trkpt>
      <trkpt lat="44.37803" lon="4.21495">
        <ele>122</ele>
        <time>2014-07-14T07:59:28Z</time>
      </trkpt>
      <trkpt lat="44.37815" lon="4.21487">
        <ele>123</ele>
        <time>2014-07-14T07:59:36Z</time>
      </trkpt>
      <trkpt lat="44.37788" lon="4.21507">
        <ele>122</ele>
        <time>2014-07-14T07:59:51Z</time>
      </trkpt>
      <trkpt lat="44.37782" lon="4.2155">
        <ele>121</ele>
        <time>2014-07-14T08:00:07Z</time>
      </trkpt>
      <trkpt lat="44.37807" lon="4.21574">
        <ele>121</ele>
        <time>2014-07-14T08:00:21Z</time>
      </trkpt>
      <trkpt lat="44.37893" lon="4.21581">
        <ele>120</ele>
        <time>2014-07-14T08:00:51Z</time>
      </trkpt>
      <trkpt lat="44.37913" lon="4.2158">
        <ele>119</ele>
        <time>2014-07-14T08:00:56Z</time>
      </trkpt>
      <trkpt lat="44.37935" lon="4.21606">
        <ele>119</ele>
        <time>2014-07-14T08:01:04Z</time>
      </trkpt>
      <trkpt lat="44.38002" lon="4.2177">
        <ele>118</ele>
        <time>2014-07-14T08:01:38Z</time>
      </trkpt>
      <trkpt lat="44.38094" lon="4.21884">
        <ele>119</ele>
        <time>2014-07-14T08:02:06Z</time>
      </trkpt>
      <trkpt lat="44.3813" lon="4.2199">
        <ele>120</ele>
        <time>2014-07-14T08:02:26Z</time>
      </trkpt>
      <trkpt lat="44.38133" lon="4.21994">
        <ele>120</ele>
        <time>2014-07-14T08:02:27Z</time>
      </trkpt>
      <trkpt lat="44.38211" lon="4.22091">
        <ele>123</ele>
        <time>2014-07-14T08:02:49Z</time>
      </trkpt>
      <trkpt lat="44.3824" lon="4.22143">
        <ele>124</ele>
        <time>2014-07-14T08:03:02Z</time>
      </trkpt>
      <trkpt lat="44.38295" lon="4.22216">
        <ele>121</ele>
        <time>2014-07-14T08:03:20Z</time>
      </trkpt>
      <trkpt lat="44.38298" lon="4.22222">
        <ele>120</ele>
        <time>2014-07-14T08:03:21Z</time>
      </trkpt>
      <trkpt lat="44.38369" lon="4.22299">
        <ele>119</ele>
        <time>2014-07-14T08:03:39Z</time>
      </trkpt>
      <trkpt lat="44.38438" lon="4.22343">
        <ele>120</ele>
        <time>2014-07-14T08:03:54Z</time>
      </trkpt>
      <trkpt lat="44.3852" lon="4.22417">
        <ele>115</ele>
        <time>2014-07-14T08:04:14Z</time>
      </trkpt>
      <trkpt lat="44.38525" lon="4.22416">
        <ele>115</ele>
        <time>2014-07-14T08:04:15Z</time>
      </trkpt>
      <trkpt lat="44.38548" lon="4.22438">
        <ele>115</ele>
        <time>2014-07-14T08:04:21Z</time>
      </trkpt>
      <trkpt lat="44.38565" lon="4.22502">
        <ele>115</ele>
        <time>2014-07-14T08:04:31Z</time>
      </trkpt>
      <trkpt lat="44.38566" lon="4.22678">
        <ele>115</ele>
        <time>2014-07-14T08:04:56Z</time>
      </trkpt>
      <trkpt lat="44.38593" lon="4.22836">
        <ele>113</ele>
        <time>2014-07-14T08:05:19Z</time>
      </trkpt>
      <trkpt lat="44.38599" lon="4.23102">
        <ele>113</ele>
        <time>2014-07-14T08:05:56Z</time>
      </trkpt>
      <trkpt lat="44.38639" lon="4.23192">
        <ele>113</ele>
        <time>2014-07-14T08:06:12Z</time>
      </trkpt>
      <trkpt lat="44.3874" lon="4.23322">
        <ele>114</ele>
        <time>2014-07-14T08:06:42Z</time>
      </trkpt>
      <trkpt lat="44.38855" lon="4.23348">
        <ele>115</ele>
        <time>2014-07-14T08:07:08Z</time>
      </trkpt>
      <trkpt lat="44.38949" lon="4.23359">
        <ele>116</ele>
        <time>2014-07-14T08:07:31Z</time>
      </trkpt>
      <trkpt lat="44.38958" lon="4.23372">
        <ele>116</ele>
        <time>2014-07-14T08:07:39Z</time>
      </trkpt>
      <trkpt lat="44.38962" lon="4.23375">
        <ele>116</ele>
        <time>2014-07-14T08:07:42Z</time>
      </trkpt>
      <trkpt lat="44.38979" lon="4.23385">
        <ele>116</ele>
        <time>2014-07-14T08:07:49Z</time>
      </trkpt>
      <trkpt lat="44.38989" lon="4.23387">
        <ele>117</ele>
        <time>2014-07-14T08:07:53Z</time>
      </trkpt>
      <trkpt lat="44.38992" lon="4.2345">
        <ele>117</ele>
        <time>2014-07-14T08:08:17Z</time>
      </trkpt>
      <trkpt lat="44.38994" lon="4.23449">
        <ele>117</ele>
        <time>2014-07-14T08:08:23Z</time>
      </trkpt>
      <trkpt lat="44.38995" lon="4.23442">
        <ele>117</ele>
        <time>2014-07-14T08:08:29Z</time>
      </trkpt>
      <trkpt lat="44.38996" lon="4.23434">
        <ele>117</ele>
        <time>2014-07-14T08:08:45Z</time>
      </trkpt>
      <trkpt lat="44.38998" lon="4.23434">
        <ele>117</ele>
        <time>2014-07-14T08:09:21Z</time>
      </trkpt>
      <trkpt lat="44.38995" lon="4.23439">
        <ele>117</ele>
        <time>2014-07-14T08:09:27Z</time>
      </trkpt>
      <trkpt lat="44.38993" lon="4.23453">
        <ele>117</ele>
        <time>2014-07-14T08:09:35Z</time>
      </trkpt>
      <trkpt lat="44.38993" lon="4.23457">
        <ele>117</ele>
        <time>2014-07-14T08:09:37Z</time>
      </trkpt>
      <trkpt lat="44.38985" lon="4.23518">
        <ele>118</ele>
        <time>2014-07-14T08:10:03Z</time>
      </trkpt>
      <trkpt lat="44.38984" lon="4.23519">
        <ele>118</ele>
        <time>2014-07-14T08:10:50Z</time>
      </trkpt>
      <trkpt lat="44.38986" lon="4.23514">
        <ele>118</ele>
        <time>2014-07-14T08:12:45Z</time>
      </trkpt>
      <trkpt lat="44.38985" lon="4.23515">
        <ele>118</ele>
        <time>2014-07-14T08:16:03Z</time>
      </trkpt>
      <trkpt lat="44.38988" lon="4.2352">
        <ele>118</ele>
        <time>2014-07-14T08:18:00Z</time>
      </trkpt>
      <trkpt lat="44.3899" lon="4.23524">
        <ele>118</ele>
        <time>2014-07-14T08:19:47Z</time>
      </trkpt>
      <trkpt lat="44.39023" lon="4.23525">
        <ele>118</ele>
        <time>2014-07-14T08:20:01Z</time>
      </trkpt>
      <trkpt lat="44.39041" lon="4.23524">
        <ele>118</ele>
        <time>2014-07-14T08:20:08Z</time>
      </trkpt>
      <trkpt lat="44.39025" lon="4.2359">
        <ele>119</ele>
        <time>2014-07-14T08:20:25Z</time>
      </trkpt>
      <trkpt lat="44.38942" lon="4.23664">
        <ele>119</ele>
        <time>2014-07-14T08:20:51Z</time>
      </trkpt>
      <trkpt lat="44.38847" lon="4.23767">
        <ele>115</ele>
        <time>2014-07-14T08:21:19Z</time>
      </trkpt>
      <trkpt lat="44.38769" lon="4.23879">
        <ele>114</ele>
        <time>2014-07-14T08:21:48Z</time>
      </trkpt>
      <trkpt lat="44.38754" lon="4.23943">
        <ele>113</ele>
        <time>2014-07-14T08:22:05Z</time>
      </trkpt>
      <trkpt lat="44.38756" lon="4.23947">
        <ele>113</ele>
        <time>2014-07-14T08:22:07Z</time>
      </trkpt>
      <trkpt lat="44.38765" lon="4.23955">
        <ele>113</ele>
        <time>2014-07-14T08:22:12Z</time>
      </trkpt>
      <trkpt lat="44.38775" lon="4.23973">
        <ele>113</ele>
        <time>2014-07-14T08:22:18Z</time>
      </trkpt>
      <trkpt lat="44.38785" lon="4.24114">
        <ele>112</ele>
        <time>2014-07-14T08:22:46Z</time>
      </trkpt>
      <trkpt lat="44.38826" lon="4.24255">
        <ele>111</ele>
        <time>2014-07-14T08:23:14Z</time>
      </trkpt>
      <trkpt lat="44.38818" lon="4.24268">
        <ele>111</ele>
        <time>2014-07-14T08:23:19Z</time>
      </trkpt>
      <trkpt lat="44.38785" lon="4.24309">
        <ele>111</ele>
        <time>2014-07-14T08:23:33Z</time>
      </trkpt>
      <trkpt lat="44.38814" lon="4.24393">
        <ele>112</ele>
        <time>2014-07-14T08:23:53Z</time>
      </trkpt>
      <trkpt lat="44.38859" lon="4.24566">
        <ele>112</ele>
        <time>2014-07-14T08:24:25Z</time>
      </trkpt>
      <trkpt lat="44.38887" lon="4.24723">
        <ele>113</ele>
        <time>2014-07-14T08:24:50Z</time>
      </trkpt>
      <trkpt lat="44.38885" lon="4.24749">
        <ele>113</ele>
        <time>2014-07-14T08:24:54Z</time>
      </trkpt>
      <trkpt lat="44.38898" lon="4.24883">
        <ele>112</ele>
        <time>2014-07-14T08:25:15Z</time>
      </trkpt>
      <trkpt lat="44.38961" lon="4.25357">
        <ele>112</ele>
        <time>2014-07-14T08:26:26Z</time>
      </trkpt>
      <trkpt lat="44.38961" lon="4.25565">
        <ele>114</ele>
        <time>2014-07-14T08:27:02Z</time>
      </trkpt>
      <trkpt lat="44.38939" lon="4.25609">
        <ele>115</ele>
        <time>2014-07-14T08:27:14Z</time>
      </trkpt>
      <trkpt lat="44.38938" lon="4.25642">
        <ele>115</ele>
        <time>2014-07-14T08:27:20Z</time>
      </trkpt>
      <trkpt lat="44.3894" lon="4.25647">
        <ele>115</ele>
        <time>2014-07-14T08:27:21Z</time>
      </trkpt>
      <trkpt lat="44.38958" lon="4.25686">
        <ele>115</ele>
        <time>2014-07-14T08:27:29Z</time>
      </trkpt>
      <trkpt lat="44.38975" lon="4.25852">
        <ele>116</ele>
        <time>2014-07-14T08:27:58Z</time>
      </trkpt>
      <trkpt lat="44.38965" lon="4.26029">
        <ele>123</ele>
        <time>2014-07-14T08:28:31Z</time>
      </trkpt>
      <trkpt lat="44.38963" lon="4.26103">
        <ele>129</ele>
        <time>2014-07-14T08:28:45Z</time>
      </trkpt>
      <trkpt lat="44.3894" lon="4.26202">
        <ele>135</ele>
        <time>2014-07-14T08:29:10Z</time>
      </trkpt>
      <trkpt lat="44.38939" lon="4.26206">
        <ele>135</ele>
        <time>2014-07-14T08:29:13Z</time>
      </trkpt>
      <trkpt lat="44.38935" lon="4.26213">
        <ele>135</ele>
        <time>2014-07-14T08:29:22Z</time>
      </trkpt>
      <trkpt lat="44.38937" lon="4.26211">
        <ele>135</ele>
        <time>2014-07-14T08:29:25Z</time>
      </trkpt>
      <trkpt lat="44.38961" lon="4.26206">
        <ele>136</ele>
        <time>2014-07-14T08:29:34Z</time>
      </trkpt>
      <trkpt lat="44.38962" lon="4.26207">
        <ele>136</ele>
        <time>2014-07-14T08:29:35Z</time>
      </trkpt>
      <trkpt lat="44.38977" lon="4.26245">
        <ele>138</ele>
        <time>2014-07-14T08:29:49Z</time>
      </trkpt>
      <trkpt lat="44.38978" lon="4.26246">
        <ele>138</ele>
        <time>2014-07-14T08:29:50Z</time>
      </trkpt>
      <trkpt lat="44.38979" lon="4.26252">
        <ele>140</ele>
        <time>2014-07-14T08:29:53Z</time>
      </trkpt>
      <trkpt lat="44.38985" lon="4.26273">
        <ele>140</ele>
        <time>2014-07-14T08:30:06Z</time>
      </trkpt>
      <trkpt lat="44.38998" lon="4.26282">
        <ele>140</ele>
        <time>2014-07-14T08:30:12Z</time>
      </trkpt>
      <trkpt lat="44.39017" lon="4.26398">
        <ele>140</ele>
        <time>2014-07-14T08:30:38Z</time>
      </trkpt>
      <trkpt lat="44.39016" lon="4.26404">
        <ele>140</ele>
        <time>2014-07-14T08:30:39Z</time>
      </trkpt>
      <trkpt lat="44.38922" lon="4.26685">
        <ele>137</ele>
        <time>2014-07-14T08:31:32Z</time>
      </trkpt>
      <trkpt lat="44.389" lon="4.2671">
        <ele>136</ele>
        <time>2014-07-14T08:31:39Z</time>
      </trkpt>
      <trkpt lat="44.38893" lon="4.26725">
        <ele>136</ele>
        <time>2014-07-14T08:31:42Z</time>
      </trkpt>
      <trkpt lat="44.38852" lon="4.26899">
        <ele>138</ele>
        <time>2014-07-14T08:32:13Z</time>
      </trkpt>
      <trkpt lat="44.38826" lon="4.27012">
        <ele>142</ele>
        <time>2014-07-14T08:32:33Z</time>
      </trkpt>
      <trkpt lat="44.38805" lon="4.27044">
        <ele>143</ele>
        <time>2014-07-14T08:32:40Z</time>
      </trkpt>
      <trkpt lat="44.38766" lon="4.27073">
        <ele>144</ele>
        <time>2014-07-14T08:32:50Z</time>
      </trkpt>
      <trkpt lat="44.38736" lon="4.27116">
        <ele>147</ele>
        <time>2014-07-14T08:33:02Z</time>
      </trkpt>
      <trkpt lat="44.38703" lon="4.27262">
        <ele>150</ele>
        <time>2014-07-14T08:33:38Z</time>
      </trkpt>
      <trkpt lat="44.38628" lon="4.27425">
        <ele>153</ele>
        <time>2014-07-14T08:34:17Z</time>
      </trkpt>
      <trkpt lat="44.38592" lon="4.27516">
        <ele>157</ele>
        <time>2014-07-14T08:34:45Z</time>
      </trkpt>
      <trkpt lat="44.38584" lon="4.27568">
        <ele>159</ele>
        <time>2014-07-14T08:34:58Z</time>
      </trkpt>
      <trkpt lat="44.38543" lon="4.27638">
        <ele>161</ele>
        <time>2014-07-14T08:35:25Z</time>
      </trkpt>
      <trkpt lat="44.38492" lon="4.27699">
        <ele>164</ele>
        <time>2014-07-14T08:35:51Z</time>
      </trkpt>
      <trkpt lat="44.38427" lon="4.2782">
        <ele>169</ele>
        <time>2014-07-14T08:36:38Z</time>
      </trkpt>
      <trkpt lat="44.38392" lon="4.27901">
        <ele>174</ele>
        <time>2014-07-14T08:37:06Z</time>
      </trkpt>
      <trkpt lat="44.3838" lon="4.27947">
        <ele>177</ele>
        <time>2014-07-14T08:37:25Z</time>
      </trkpt>
      <trkpt lat="44.3841" lon="4.27981">
        <ele>177</ele>
        <time>2014-07-14T08:37:43Z</time>
      </trkpt>
      <trkpt lat="44.38525" lon="4.2805">
        <ele>171</ele>
        <time>2014-07-14T08:38:20Z</time>
      </trkpt>
      <trkpt lat="44.3853" lon="4.28054">
        <ele>171</ele>
        <time>2014-07-14T08:38:21Z</time>
      </trkpt>
      <trkpt lat="44.38568" lon="4.28084">
        <ele>165</ele>
        <time>2014-07-14T08:38:27Z</time>
      </trkpt>
      <trkpt lat="44.38601" lon="4.28099">
        <ele>161</ele>
        <time>2014-07-14T08:38:32Z</time>
      </trkpt>
      <trkpt lat="44.38616" lon="4.28105">
        <ele>159</ele>
        <time>2014-07-14T08:38:34Z</time>
      </trkpt>
      <trkpt lat="44.38636" lon="4.28107">
        <ele>158</ele>
        <time>2014-07-14T08:38:37Z</time>
      </trkpt>
      <trkpt lat="44.38657" lon="4.28117">
        <ele>157</ele>
        <time>2014-07-14T08:38:41Z</time>
      </trkpt>
      <trkpt lat="44.38661" lon="4.28121">
        <ele>157</ele>
        <time>2014-07-14T08:38:42Z</time>
      </trkpt>
      <trkpt lat="44.38684" lon="4.28123">
        <ele>150</ele>
        <time>2014-07-14T08:38:46Z</time>
      </trkpt>
      <trkpt lat="44.38707" lon="4.28102">
        <ele>149</ele>
        <time>2014-07-14T08:38:51Z</time>
      </trkpt>
      <trkpt lat="44.38724" lon="4.28076">
        <ele>149</ele>
        <time>2014-07-14T08:38:56Z</time>
      </trkpt>
      <trkpt lat="44.38746" lon="4.2806">
        <ele>148</ele>
        <time>2014-07-14T08:39:01Z</time>
      </trkpt>
      <trkpt lat="44.3876" lon="4.28066">
        <ele>144</ele>
        <time>2014-07-14T08:39:04Z</time>
      </trkpt>
      <trkpt lat="44.38773" lon="4.28071">
        <ele>144</ele>
        <time>2014-07-14T08:39:07Z</time>
      </trkpt>
      <trkpt lat="44.38792" lon="4.2812">
        <ele>145</ele>
        <time>2014-07-14T08:39:22Z</time>
      </trkpt>
      <trkpt lat="44.38857" lon="4.28147">
        <ele>147</ele>
        <time>2014-07-14T08:39:49Z</time>
      </trkpt>
      <trkpt lat="44.38901" lon="4.28167">
        <ele>150</ele>
        <time>2014-07-14T08:40:13Z</time>
      </trkpt>
      <trkpt lat="44.38902" lon="4.28169">
        <ele>150</ele>
        <time>2014-07-14T08:40:14Z</time>
      </trkpt>
      <trkpt lat="44.38889" lon="4.28173">
        <ele>150</ele>
        <time>2014-07-14T08:40:26Z</time>
      </trkpt>
      <trkpt lat="44.38882" lon="4.28186">
        <ele>150</ele>
        <time>2014-07-14T08:40:31Z</time>
      </trkpt>
      <trkpt lat="44.38872" lon="4.28219">
        <ele>150</ele>
        <time>2014-07-14T08:40:39Z</time>
      </trkpt>
      <trkpt lat="44.38845" lon="4.28275">
        <ele>149</ele>
        <time>2014-07-14T08:40:49Z</time>
      </trkpt>
      <trkpt lat="44.38843" lon="4.28294">
        <ele>150</ele>
        <time>2014-07-14T08:40:52Z</time>
      </trkpt>
      <trkpt lat="44.38842" lon="4.28307">
        <ele>150</ele>
        <time>2014-07-14T08:40:54Z</time>
      </trkpt>
      <trkpt lat="44.38802" lon="4.28379">
        <ele>153</ele>
        <time>2014-07-14T08:41:14Z</time>
      </trkpt>
      <trkpt lat="44.38742" lon="4.28434">
        <ele>158</ele>
        <time>2014-07-14T08:41:42Z</time>
      </trkpt>
      <trkpt lat="44.38644" lon="4.28547">
        <ele>159</ele>
        <time>2014-07-14T08:42:28Z</time>
      </trkpt>
      <trkpt lat="44.38627" lon="4.28622">
        <ele>164</ele>
        <time>2014-07-14T08:42:49Z</time>
      </trkpt>
      <trkpt lat="44.38582" lon="4.28709">
        <ele>167</ele>
        <time>2014-07-14T08:43:16Z</time>
      </trkpt>
      <trkpt lat="44.38551" lon="4.28724">
        <ele>167</ele>
        <time>2014-07-14T08:43:25Z</time>
      </trkpt>
      <trkpt lat="44.38545" lon="4.28725">
        <ele>167</ele>
        <time>2014-07-14T08:43:26Z</time>
      </trkpt>
      <trkpt lat="44.38527" lon="4.2873">
        <ele>167</ele>
        <time>2014-07-14T08:43:29Z</time>
      </trkpt>
      <trkpt lat="44.38502" lon="4.28742">
        <ele>167</ele>
        <time>2014-07-14T08:43:34Z</time>
      </trkpt>
      <trkpt lat="44.38476" lon="4.28754">
        <ele>174</ele>
        <time>2014-07-14T08:43:59Z</time>
      </trkpt>
      <trkpt lat="44.38465" lon="4.28753">
        <ele>175</ele>
        <time>2014-07-14T08:44:13Z</time>
      </trkpt>
      <trkpt lat="44.38439" lon="4.28764">
        <ele>175</ele>
        <time>2014-07-14T08:44:52Z</time>
      </trkpt>
      <trkpt lat="44.38418" lon="4.28759">
        <ele>171</ele>
        <time>2014-07-14T08:45:20Z</time>
      </trkpt>
      <trkpt lat="44.38385" lon="4.28733">
        <ele>175</ele>
        <time>2014-07-14T08:45:44Z</time>
      </trkpt>
      <trkpt lat="44.38384" lon="4.28731">
        <ele>176</ele>
        <time>2014-07-14T08:45:45Z</time>
      </trkpt>
      <trkpt lat="44.38355" lon="4.28709">
        <ele>178</ele>
        <time>2014-07-14T08:46:24Z</time>
      </trkpt>
      <trkpt lat="44.38348" lon="4.28716">
        <ele>178</ele>
        <time>2014-07-14T08:46:55Z</time>
      </trkpt>
      <trkpt lat="44.38344" lon="4.28721">
        <ele>178</ele>
        <time>2014-07-14T08:47:19Z</time>
      </trkpt>
      <trkpt lat="44.38347" lon="4.2872">
        <ele>178</ele>
        <time>2014-07-14T08:47:36Z</time>
      </trkpt>
      <trkpt lat="44.38358" lon="4.28738">
        <ele>177</ele>
        <time>2014-07-14T08:47:54Z</time>
      </trkpt>
      <trkpt lat="44.3834" lon="4.28758">
        <ele>178</ele>
        <time>2014-07-14T08:48:20Z</time>
      </trkpt>
      <trkpt lat="44.38319" lon="4.28764">
        <ele>188</ele>
        <time>2014-07-14T08:48:48Z</time>
      </trkpt>
      <trkpt lat="44.38327" lon="4.28772">
        <ele>188</ele>
        <time>2014-07-14T08:49:17Z</time>
      </trkpt>
      <trkpt lat="44.3833" lon="4.28772">
        <ele>188</ele>
        <time>2014-07-14T08:49:19Z</time>
      </trkpt>
      <trkpt lat="44.38351" lon="4.28786">
        <ele>183</ele>
        <time>2014-07-14T08:49:35Z</time>
      </trkpt>
      <trkpt lat="44.38375" lon="4.28816">
        <ele>185</ele>
        <time>2014-07-14T08:49:58Z</time>
      </trkpt>
      <trkpt lat="44.384" lon="4.28845">
        <ele>201</ele>
        <time>2014-07-14T08:50:19Z</time>
      </trkpt>
      <trkpt lat="44.38401" lon="4.28846">
        <ele>201</ele>
        <time>2014-07-14T08:50:20Z</time>
      </trkpt>
      <trkpt lat="44.38428" lon="4.28861">
        <ele>205</ele>
        <time>2014-07-14T08:50:41Z</time>
      </trkpt>
      <trkpt lat="44.38464" lon="4.28856">
        <ele>206</ele>
        <time>2014-07-14T08:51:05Z</time>
      </trkpt>
      <trkpt lat="44.38507" lon="4.28859">
        <ele>210</ele>
        <time>2014-07-14T08:51:32Z</time>
      </trkpt>
      <trkpt lat="44.38521" lon="4.28864">
        <ele>213</ele>
        <time>2014-07-14T08:51:42Z</time>
      </trkpt>
      <trkpt lat="44.3854" lon="4.28871">
        <ele>216</ele>
        <time>2014-07-14T08:52:00Z</time>
      </trkpt>
      <trkpt lat="44.38561" lon="4.28874">
        <ele>217</ele>
        <time>2014-07-14T08:52:37Z</time>
      </trkpt>
      <trkpt lat="44.38561" lon="4.28876">
        <ele>218</ele>
        <time>2014-07-14T08:53:10Z</time>
      </trkpt>
      <trkpt lat="44.38581" lon="4.28872">
        <ele>217</ele>
        <time>2014-07-14T08:53:58Z</time>
      </trkpt>
      <trkpt lat="44.38592" lon="4.28879">
        <ele>224</ele>
        <time>2014-07-14T08:54:41Z</time>
      </trkpt>
      <trkpt lat="44.38592" lon="4.28876">
        <ele>223</ele>
        <time>2014-07-14T08:54:48Z</time>
      </trkpt>
      <trkpt lat="44.38637" lon="4.28857">
        <ele>221</ele>
        <time>2014-07-14T08:55:05Z</time>
      </trkpt>
      <trkpt lat="44.3864" lon="4.28855">
        <ele>221</ele>
        <time>2014-07-14T08:55:06Z</time>
      </trkpt>
      <trkpt lat="44.38647" lon="4.28864">
        <ele>222</ele>
        <time>2014-07-14T08:55:19Z</time>
      </trkpt>
      <trkpt lat="44.38643" lon="4.2887">
        <ele>224</ele>
        <time>2014-07-14T08:55:48Z</time>
      </trkpt>
      <trkpt lat="44.38644" lon="4.2887">
        <ele>224</ele>
        <time>2014-07-14T08:55:49Z</time>
      </trkpt>
      <trkpt lat="44.38653" lon="4.28863">
        <ele>222</ele>
        <time>2014-07-14T08:55:59Z</time>
      </trkpt>
      <trkpt lat="44.38678" lon="4.28865">
        <ele>220</ele>
        <time>2014-07-14T08:56:31Z</time>
      </trkpt>
      <trkpt lat="44.38701" lon="4.28884">
        <ele>222</ele>
        <time>2014-07-14T08:57:03Z</time>
      </trkpt>
      <trkpt lat="44.38715" lon="4.28912">
        <ele>223</ele>
        <time>2014-07-14T08:57:34Z</time>
      </trkpt>
      <trkpt lat="44.38709" lon="4.28945">
        <ele>232</ele>
        <time>2014-07-14T08:58:05Z</time>
      </trkpt>
      <trkpt lat="44.38698" lon="4.28971">
        <ele>235</ele>
        <time>2014-07-14T08:58:37Z</time>
      </trkpt>
      <trkpt lat="44.38686" lon="4.29004">
        <ele>240</ele>
        <time>2014-07-14T08:59:12Z</time>
      </trkpt>
      <trkpt lat="44.38673" lon="4.29019">
        <ele>241</ele>
        <time>2014-07-14T08:59:41Z</time>
      </trkpt>
      <trkpt lat="44.38653" lon="4.29037">
        <ele>253</ele>
        <time>2014-07-14T09:00:09Z</time>
      </trkpt>
      <trkpt lat="44.38636" lon="4.29057">
        <ele>254</ele>
        <time>2014-07-14T09:00:37Z</time>
      </trkpt>
      <trkpt lat="44.3863" lon="4.29061">
        <ele>255</ele>
        <time>2014-07-14T09:00:43Z</time>
      </trkpt>
      <trkpt lat="44.38592" lon="4.29089">
        <ele>262</ele>
        <time>2014-07-14T09:01:10Z</time>
      </trkpt>
      <trkpt lat="44.38571" lon="4.29093">
        <ele>270</ele>
        <time>2014-07-14T09:01:27Z</time>
      </trkpt>
      <trkpt lat="44.38551" lon="4.29104">
        <ele>272</ele>
        <time>2014-07-14T09:01:40Z</time>
      </trkpt>
      <trkpt lat="44.38534" lon="4.29114">
        <ele>274</ele>
        <time>2014-07-14T09:01:58Z</time>
      </trkpt>
      <trkpt lat="44.38532" lon="4.29116">
        <ele>274</ele>
        <time>2014-07-14T09:02:15Z</time>
      </trkpt>
      <trkpt lat="44.38527" lon="4.29138">
        <ele>276</ele>
        <time>2014-07-14T09:02:37Z</time>
      </trkpt>
      <trkpt lat="44.38527" lon="4.29174">
        <ele>279</ele>
        <time>2014-07-14T09:02:52Z</time>
      </trkpt>
      <trkpt lat="44.38524" lon="4.29201">
        <ele>278</ele>
        <time>2014-07-14T09:03:05Z</time>
      </trkpt>
      <trkpt lat="44.38519" lon="4.29246">
        <ele>283</ele>
        <time>2014-07-14T09:03:28Z</time>
      </trkpt>
      <trkpt lat="44.38493" lon="4.29304">
        <ele>298</ele>
        <time>2014-07-14T09:04:03Z</time>
      </trkpt>
      <trkpt lat="44.38491" lon="4.29306">
        <ele>297</ele>
        <time>2014-07-14T09:04:05Z</time>
      </trkpt>
      <trkpt lat="44.38479" lon="4.29338">
        <ele>299</ele>
        <time>2014-07-14T09:04:23Z</time>
      </trkpt>
      <trkpt lat="44.38461" lon="4.29384">
        <ele>303</ele>
        <time>2014-07-14T09:04:47Z</time>
      </trkpt>
      <trkpt lat="44.38441" lon="4.29418">
        <ele>304</ele>
        <time>2014-07-14T09:05:11Z</time>
      </trkpt>
      <trkpt lat="44.38367" lon="4.29491">
        <ele>312</ele>
        <time>2014-07-14T09:06:09Z</time>
      </trkpt>
      <trkpt lat="44.38289" lon="4.29545">
        <ele>313</ele>
        <time>2014-07-14T09:06:47Z</time>
      </trkpt>
      <trkpt lat="44.38262" lon="4.29597">
        <ele>313</ele>
        <time>2014-07-14T09:07:07Z</time>
      </trkpt>
      <trkpt lat="44.38251" lon="4.29638">
        <ele>313</ele>
        <time>2014-07-14T09:07:33Z</time>
      </trkpt>
      <trkpt lat="44.38239" lon="4.29677">
        <ele>319</ele>
        <time>2014-07-14T09:07:55Z</time>
      </trkpt>
      <trkpt lat="44.38233" lon="4.29724">
        <ele>321</ele>
        <time>2014-07-14T09:08:08Z</time>
      </trkpt>
      <trkpt lat="44.38273" lon="4.298">
        <ele>323</ele>
        <time>2014-07-14T09:08:35Z</time>
      </trkpt>
      <trkpt lat="44.38336" lon="4.29865">
        <ele>323</ele>
        <time>2014-07-14T09:09:06Z</time>
      </trkpt>
      <trkpt lat="44.38389" lon="4.29978">
        <ele>326</ele>
        <time>2014-07-14T09:09:34Z</time>
      </trkpt>
      <trkpt lat="44.38437" lon="4.30079">
        <ele>327</ele>
        <time>2014-07-14T09:10:01Z</time>
      </trkpt>
      <trkpt lat="44.38517" lon="4.3026">
        <ele>332</ele>
        <time>2014-07-14T09:10:45Z</time>
      </trkpt>
      <trkpt lat="44.38543" lon="4.30349">
        <ele>335</ele>
        <time>2014-07-14T09:11:10Z</time>
      </trkpt>
      <trkpt lat="44.3855" lon="4.30532">
        <ele>341</ele>
        <time>2014-07-14T09:11:50Z</time>
      </trkpt>
      <trkpt lat="44.38555" lon="4.30562">
        <ele>341</ele>
        <time>2014-07-14T09:11:56Z</time>
      </trkpt>
      <trkpt lat="44.38568" lon="4.3062">
        <ele>346</ele>
        <time>2014-07-14T09:12:10Z</time>
      </trkpt>
      <trkpt lat="44.38573" lon="4.30712">
        <ele>351</ele>
        <time>2014-07-14T09:12:39Z</time>
      </trkpt>
      <trkpt lat="44.38584" lon="4.30791">
        <ele>347</ele>
        <time>2014-07-14T09:13:03Z</time>
      </trkpt>
      <trkpt lat="44.38607" lon="4.30862">
        <ele>353</ele>
        <time>2014-07-14T09:13:29Z</time>
      </trkpt>
      <trkpt lat="44.38602" lon="4.30893">
        <ele>355</ele>
        <time>2014-07-14T09:13:41Z</time>
      </trkpt>
      <trkpt lat="44.38595" lon="4.30924">
        <ele>361</ele>
        <time>2014-07-14T09:13:53Z</time>
      </trkpt>
      <trkpt lat="44.3865" lon="4.30963">
        <ele>361</ele>
        <time>2014-07-14T09:14:18Z</time>
      </trkpt>
      <trkpt lat="44.38669" lon="4.3103">
        <ele>360</ele>
        <time>2014-07-14T09:14:40Z</time>
      </trkpt>
      <trkpt lat="44.38713" lon="4.31104">
        <ele>365</ele>
        <time>2014-07-14T09:15:02Z</time>
      </trkpt>
      <trkpt lat="44.38772" lon="4.31198">
        <ele>364</ele>
        <time>2014-07-14T09:15:33Z</time>
      </trkpt>
      <trkpt lat="44.38828" lon="4.31269">
        <ele>369</ele>
        <time>2014-07-14T09:15:52Z</time>
      </trkpt>
      <trkpt lat="44.38849" lon="4.31249">
        <ele>360</ele>
        <time>2014-07-14T09:16:01Z</time>
      </trkpt>
      <trkpt lat="44.38896" lon="4.31208">
        <ele>358</ele>
        <time>2014-07-14T09:16:15Z</time>
      </trkpt>
      <trkpt lat="44.38955" lon="4.3123">
        <ele>358</ele>
        <time>2014-07-14T09:16:29Z</time>
      </trkpt>
      <trkpt lat="44.39053" lon="4.31275">
        <ele>359</ele>
        <time>2014-07-14T09:16:49Z</time>
      </trkpt>
      <trkpt lat="44.39119" lon="4.313">
        <ele>358</ele>
        <time>2014-07-14T09:17:02Z</time>
      </trkpt>
      <trkpt lat="44.39124" lon="4.31301">
        <ele>358</ele>
        <time>2014-07-14T09:17:03Z</time>
      </trkpt>
      <trkpt lat="44.39134" lon="4.31298">
        <ele>357</ele>
        <time>2014-07-14T09:17:07Z</time>
      </trkpt>
      <trkpt lat="44.3918" lon="4.31296">
        <ele>357</ele>
        <time>2014-07-14T09:17:38Z</time>
      </trkpt>
      <trkpt lat="44.3924" lon="4.31298">
        <ele>357</ele>
        <time>2014-07-14T09:17:53Z</time>
      </trkpt>
      <trkpt lat="44.39346" lon="4.31294">
        <ele>352</ele>
        <time>2014-07-14T09:18:18Z</time>
      </trkpt>
      <trkpt lat="44.39419" lon="4.31323">
        <ele>348</ele>
        <time>2014-07-14T09:18:31Z</time>
      </trkpt>
      <trkpt lat="44.39439" lon="4.31329">
        <ele>347</ele>
        <time>2014-07-14T09:18:34Z</time>
      </trkpt>
      <trkpt lat="44.39475" lon="4.31341">
        <ele>346</ele>
        <time>2014-07-14T09:18:40Z</time>
      </trkpt>
      <trkpt lat="44.39537" lon="4.31352">
        <ele>344</ele>
        <time>2014-07-14T09:18:51Z</time>
      </trkpt>
      <trkpt lat="44.39608" lon="4.31346">
        <ele>341</ele>
        <time>2014-07-14T09:19:02Z</time>
      </trkpt>
      <trkpt lat="44.39656" lon="4.3135">
        <ele>340</ele>
        <time>2014-07-14T09:19:19Z</time>
      </trkpt>
      <trkpt lat="44.39656" lon="4.3135">
        <ele>340</ele>
        <time>2014-07-14T09:19:20Z</time>
      </trkpt>
      <trkpt lat="44.39653" lon="4.31396">
        <ele>340</ele>
        <time>2014-07-14T09:19:37Z</time>
      </trkpt>
      <trkpt lat="44.39664" lon="4.31445">
        <ele>338</ele>
        <time>2014-07-14T09:19:46Z</time>
      </trkpt>
      <trkpt lat="44.39689" lon="4.31546">
        <ele>335</ele>
        <time>2014-07-14T09:19:58Z</time>
      </trkpt>
      <trkpt lat="44.39751" lon="4.31641">
        <ele>330</ele>
        <time>2014-07-14T09:20:16Z</time>
      </trkpt>
      <trkpt lat="44.39801" lon="4.31671">
        <ele>327</ele>
        <time>2014-07-14T09:20:32Z</time>
      </trkpt>
      <trkpt lat="44.39809" lon="4.31671">
        <ele>327</ele>
        <time>2014-07-14T09:20:34Z</time>
      </trkpt>
      <trkpt lat="44.39877" lon="4.31756">
        <ele>325</ele>
        <time>2014-07-14T09:20:52Z</time>
      </trkpt>
      <trkpt lat="44.39908" lon="4.31886">
        <ele>323</ele>
        <time>2014-07-14T09:21:12Z</time>
      </trkpt>
      <trkpt lat="44.39911" lon="4.31946">
        <ele>322</ele>
        <time>2014-07-14T09:21:20Z</time>
      </trkpt>
      <trkpt lat="44.39946" lon="4.31989">
        <ele>321</ele>
        <time>2014-07-14T09:21:28Z</time>
      </trkpt>
      <trkpt lat="44.39947" lon="4.32083">
        <ele>319</ele>
        <time>2014-07-14T09:21:40Z</time>
      </trkpt>
      <trkpt lat="44.39972" lon="4.32154">
        <ele>317</ele>
        <time>2014-07-14T09:21:53Z</time>
      </trkpt>
      <trkpt lat="44.40035" lon="4.32232">
        <ele>314</ele>
        <time>2014-07-14T09:22:07Z</time>
      </trkpt>
      <trkpt lat="44.40094" lon="4.32275">
        <ele>309</ele>
        <time>2014-07-14T09:22:19Z</time>
      </trkpt>
      <trkpt lat="44.40115" lon="4.32339">
        <ele>313</ele>
        <time>2014-07-14T09:22:36Z</time>
      </trkpt>
      <trkpt lat="44.40105" lon="4.32448">
        <ele>319</ele>
        <time>2014-07-14T09:23:04Z</time>
      </trkpt>
      <trkpt lat="44.40118" lon="4.32512">
        <ele>324</ele>
        <time>2014-07-14T09:23:26Z</time>
      </trkpt>
      <trkpt lat="44.40123" lon="4.32544">
        <ele>324</ele>
        <time>2014-07-14T09:23:38Z</time>
      </trkpt>
      <trkpt lat="44.40109" lon="4.32598">
        <ele>327</ele>
        <time>2014-07-14T09:23:57Z</time>
      </trkpt>
      <trkpt lat="44.40096" lon="4.32643">
        <ele>329</ele>
        <time>2014-07-14T09:24:12Z</time>
      </trkpt>
      <trkpt lat="44.40109" lon="4.32682">
        <ele>332</ele>
        <time>2014-07-14T09:24:26Z</time>
      </trkpt>
      <trkpt lat="44.40147" lon="4.32653">
        <ele>328</ele>
        <time>2014-07-14T09:24:54Z</time>
      </trkpt>
      <trkpt lat="44.40188" lon="4.32641">
        <ele>326</ele>
        <time>2014-07-14T09:25:05Z</time>
      </trkpt>
      <trkpt lat="44.40188" lon="4.32656">
        <ele>326</ele>
        <time>2014-07-14T09:25:09Z</time>
      </trkpt>
      <trkpt lat="44.40157" lon="4.32742">
        <ele>333</ele>
        <time>2014-07-14T09:25:34Z</time>
      </trkpt>
      <trkpt lat="44.40142" lon="4.32781">
        <ele>336</ele>
        <time>2014-07-14T09:25:46Z</time>
      </trkpt>
      <trkpt lat="44.40091" lon="4.32872">
        <ele>340</ele>
        <time>2014-07-14T09:26:16Z</time>
      </trkpt>
      <trkpt lat="44.40062" lon="4.32933">
        <ele>346</ele>
        <time>2014-07-14T09:26:32Z</time>
      </trkpt>
      <trkpt lat="44.40024" lon="4.33005">
        <ele>347</ele>
        <time>2014-07-14T09:26:57Z</time>
      </trkpt>
      <trkpt lat="44.40013" lon="4.33017">
        <ele>348</ele>
        <time>2014-07-14T09:27:17Z</time>
      </trkpt>
      <trkpt lat="44.4001" lon="4.33013">
        <ele>349</ele>
        <time>2014-07-14T09:29:14Z</time>
      </trkpt>
      <trkpt lat="44.40015" lon="4.3302">
        <ele>347</ele>
        <time>2014-07-14T09:29:57Z</time>
      </trkpt>
      <trkpt lat="44.40015" lon="4.33021">
        <ele>347</ele>
        <time>2014-07-14T09:31:08Z</time>
      </trkpt>
      <trkpt lat="44.40016" lon="4.33027">
        <ele>346</ele>
        <time>2014-07-14T09:31:12Z</time>
      </trkpt>
      <trkpt lat="44.39976" lon="4.33086">
        <ele>343</ele>
        <time>2014-07-14T09:31:38Z</time>
      </trkpt>
      <trkpt lat="44.39888" lon="4.33101">
        <ele>346</ele>
        <time>2014-07-14T09:32:00Z</time>
      </trkpt>
      <trkpt lat="44.39737" lon="4.33087">
        <ele>353</ele>
        <time>2014-07-14T09:32:40Z</time>
      </trkpt>
      <trkpt lat="44.39645" lon="4.33147">
        <ele>353</ele>
        <time>2014-07-14T09:33:05Z</time>
      </trkpt>
      <trkpt lat="44.39602" lon="4.3315">
        <ele>353</ele>
        <time>2014-07-14T09:33:12Z</time>
      </trkpt>
      <trkpt lat="44.39586" lon="4.33163">
        <ele>350</ele>
        <time>2014-07-14T09:33:18Z</time>
      </trkpt>
      <trkpt lat="44.3959" lon="4.33169">
        <ele>350</ele>
        <time>2014-07-14T09:33:20Z</time>
      </trkpt>
      <trkpt lat="44.39639" lon="4.33202">
        <ele>353</ele>
        <time>2014-07-14T09:33:36Z</time>
      </trkpt>
      <trkpt lat="44.39733" lon="4.33182">
        <ele>345</ele>
        <time>2014-07-14T09:34:00Z</time>
      </trkpt>
      <trkpt lat="44.39821" lon="4.33234">
        <ele>338</ele>
        <time>2014-07-14T09:34:22Z</time>
      </trkpt>
      <trkpt lat="44.39831" lon="4.33241">
        <ele>338</ele>
        <time>2014-07-14T09:35:04Z</time>
      </trkpt>
      <trkpt lat="44.3983" lon="4.33236">
        <ele>338</ele>
        <time>2014-07-14T09:36:47Z</time>
      </trkpt>
      <trkpt lat="44.39774" lon="4.33195">
        <ele>340</ele>
        <time>2014-07-14T09:37:06Z</time>
      </trkpt>
      <trkpt lat="44.39729" lon="4.33181">
        <ele>345</ele>
        <time>2014-07-14T09:37:20Z</time>
      </trkpt>
      <trkpt lat="44.39689" lon="4.33191">
        <ele>348</ele>
        <time>2014-07-14T09:37:34Z</time>
      </trkpt>
      <trkpt lat="44.39639" lon="4.332">
        <ele>353</ele>
        <time>2014-07-14T09:37:48Z</time>
      </trkpt>
      <trkpt lat="44.39583" lon="4.3316">
        <ele>352</ele>
        <time>2014-07-14T09:38:07Z</time>
      </trkpt>
      <trkpt lat="44.39593" lon="4.3315">
        <ele>353</ele>
        <time>2014-07-14T09:38:13Z</time>
      </trkpt>
      <trkpt lat="44.39652" lon="4.33142">
        <ele>353</ele>
        <time>2014-07-14T09:38:39Z</time>
      </trkpt>
      <trkpt lat="44.3965" lon="4.33134">
        <ele>354</ele>
        <time>2014-07-14T09:38:47Z</time>
      </trkpt>
      <trkpt lat="44.39629" lon="4.33134">
        <ele>355</ele>
        <time>2014-07-14T09:38:58Z</time>
      </trkpt>
      <trkpt lat="44.39628" lon="4.33133">
        <ele>355</ele>
        <time>2014-07-14T09:38:59Z</time>
      </trkpt>
      <trkpt lat="44.39603" lon="4.33091">
        <ele>359</ele>
        <time>2014-07-14T09:39:19Z</time>
      </trkpt>
      <trkpt lat="44.39576" lon="4.3306">
        <ele>370</ele>
        <time>2014-07-14T09:39:38Z</time>
      </trkpt>
      <trkpt lat="44.39516" lon="4.33026">
        <ele>374</ele>
        <time>2014-07-14T09:40:08Z</time>
      </trkpt>
      <trkpt lat="44.39476" lon="4.33011">
        <ele>377</ele>
        <time>2014-07-14T09:40:27Z</time>
      </trkpt>
      <trkpt lat="44.39436" lon="4.33001">
        <ele>380</ele>
        <time>2014-07-14T09:40:47Z</time>
      </trkpt>
      <trkpt lat="44.39388" lon="4.32999">
        <ele>394</ele>
        <time>2014-07-14T09:41:13Z</time>
      </trkpt>
      <trkpt lat="44.39384" lon="4.33016">
        <ele>388</ele>
        <time>2014-07-14T09:41:23Z</time>
      </trkpt>
      <trkpt lat="44.39398" lon="4.33054">
        <ele>386</ele>
        <time>2014-07-14T09:41:41Z</time>
      </trkpt>
      <trkpt lat="44.39403" lon="4.33074">
        <ele>383</ele>
        <time>2014-07-14T09:41:51Z</time>
      </trkpt>
      <trkpt lat="44.3938" lon="4.3307">
        <ele>387</ele>
        <time>2014-07-14T09:42:09Z</time>
      </trkpt>
      <trkpt lat="44.39357" lon="4.33064">
        <ele>389</ele>
        <time>2014-07-14T09:42:24Z</time>
      </trkpt>
      <trkpt lat="44.39326" lon="4.33054">
        <ele>401</ele>
        <time>2014-07-14T09:42:45Z</time>
      </trkpt>
      <trkpt lat="44.39322" lon="4.33053">
        <ele>401</ele>
        <time>2014-07-14T09:42:48Z</time>
      </trkpt>
      <trkpt lat="44.39307" lon="4.33067">
        <ele>402</ele>
        <time>2014-07-14T09:43:03Z</time>
      </trkpt>
      <trkpt lat="44.39284" lon="4.33072">
        <ele>406</ele>
        <time>2014-07-14T09:43:47Z</time>
      </trkpt>
      <trkpt lat="44.39266" lon="4.33081">
        <ele>410</ele>
        <time>2014-07-14T09:44:11Z</time>
      </trkpt>
      <trkpt lat="44.3924" lon="4.33127">
        <ele>417</ele>
        <time>2014-07-14T09:45:01Z</time>
      </trkpt>
      <trkpt lat="44.39209" lon="4.33188">
        <ele>413</ele>
        <time>2014-07-14T09:45:26Z</time>
      </trkpt>
      <trkpt lat="44.39199" lon="4.33222">
        <ele>412</ele>
        <time>2014-07-14T09:45:42Z</time>
      </trkpt>
      <trkpt lat="44.39186" lon="4.33227">
        <ele>412</ele>
        <time>2014-07-14T09:46:02Z</time>
      </trkpt>
      <trkpt lat="44.39175" lon="4.33207">
        <ele>413</ele>
        <time>2014-07-14T09:46:23Z</time>
      </trkpt>
      <trkpt lat="44.39176" lon="4.33207">
        <ele>413</ele>
        <time>2014-07-14T09:46:30Z</time>
      </trkpt>
      <trkpt lat="44.39177" lon="4.33167">
        <ele>420</ele>
        <time>2014-07-14T09:46:48Z</time>
      </trkpt>
      <trkpt lat="44.39179" lon="4.33109">
        <ele>424</ele>
        <time>2014-07-14T09:47:12Z</time>
      </trkpt>
      <trkpt lat="44.39181" lon="4.33062">
        <ele>429</ele>
        <time>2014-07-14T09:47:34Z</time>
      </trkpt>
      <trkpt lat="44.39182" lon="4.33059">
        <ele>429</ele>
        <time>2014-07-14T09:47:36Z</time>
      </trkpt>
      <trkpt lat="44.39167" lon="4.33003">
        <ele>436</ele>
        <time>2014-07-14T09:48:04Z</time>
      </trkpt>
      <trkpt lat="44.39159" lon="4.32958">
        <ele>428</ele>
        <time>2014-07-14T09:48:33Z</time>
      </trkpt>
      <trkpt lat="44.39183" lon="4.32913">
        <ele>436</ele>
        <time>2014-07-14T09:48:58Z</time>
      </trkpt>
      <trkpt lat="44.39193" lon="4.32889">
        <ele>437</ele>
        <time>2014-07-14T09:49:09Z</time>
      </trkpt>
      <trkpt lat="44.39196" lon="4.32872">
        <ele>438</ele>
        <time>2014-07-14T09:49:21Z</time>
      </trkpt>
      <trkpt lat="44.392" lon="4.32848">
        <ele>439</ele>
        <time>2014-07-14T09:49:48Z</time>
      </trkpt>
      <trkpt lat="44.39207" lon="4.32815">
        <ele>446</ele>
        <time>2014-07-14T09:50:24Z</time>
      </trkpt>
      <trkpt lat="44.39205" lon="4.32787">
        <ele>447</ele>
        <time>2014-07-14T09:51:02Z</time>
      </trkpt>
      <trkpt lat="44.39203" lon="4.32778">
        <ele>447</ele>
        <time>2014-07-14T09:51:16Z</time>
      </trkpt>
      <trkpt lat="44.3921" lon="4.32774">
        <ele>448</ele>
        <time>2014-07-14T09:51:47Z</time>
      </trkpt>
      <trkpt lat="44.3921" lon="4.32774">
        <ele>448</ele>
        <time>2014-07-14T09:52:46Z</time>
      </trkpt>
      <trkpt lat="44.39194" lon="4.32753">
        <ele>448</ele>
        <time>2014-07-14T09:52:55Z</time>
      </trkpt>
      <trkpt lat="44.39159" lon="4.32706">
        <ele>440</ele>
        <time>2014-07-14T09:53:12Z</time>
      </trkpt>
      <trkpt lat="44.3915" lon="4.32681">
        <ele>441</ele>
        <time>2014-07-14T09:53:19Z</time>
      </trkpt>
      <trkpt lat="44.39143" lon="4.32665">
        <ele>447</ele>
        <time>2014-07-14T09:53:35Z</time>
      </trkpt>
      <trkpt lat="44.39143" lon="4.32664">
        <ele>447</ele>
        <time>2014-07-14T09:55:09Z</time>
      </trkpt>
      <trkpt lat="44.3914" lon="4.32664">
        <ele>447</ele>
        <time>2014-07-14T09:57:23Z</time>
      </trkpt>
      <trkpt lat="44.39124" lon="4.32659">
        <ele>446</ele>
        <time>2014-07-14T09:57:31Z</time>
      </trkpt>
      <trkpt lat="44.39077" lon="4.32619">
        <ele>447</ele>
        <time>2014-07-14T09:57:52Z</time>
      </trkpt>
      <trkpt lat="44.39034" lon="4.32602">
        <ele>446</ele>
        <time>2014-07-14T09:58:12Z</time>
      </trkpt>
      <trkpt lat="44.39015" lon="4.32591">
        <ele>448</ele>
        <time>2014-07-14T09:58:22Z</time>
      </trkpt>
      <trkpt lat="44.38994" lon="4.3258">
        <ele>454</ele>
        <time>2014-07-14T09:58:35Z</time>
      </trkpt>
      <trkpt lat="44.38977" lon="4.32564">
        <ele>457</ele>
        <time>2014-07-14T09:58:47Z</time>
      </trkpt>
      <trkpt lat="44.3893" lon="4.3252">
        <ele>462</ele>
        <time>2014-07-14T09:59:11Z</time>
      </trkpt>
      <trkpt lat="44.38867" lon="4.32507">
        <ele>447</ele>
        <time>2014-07-14T09:59:33Z</time>
      </trkpt>
      <trkpt lat="44.38859" lon="4.32507">
        <ele>446</ele>
        <time>2014-07-14T09:59:37Z</time>
      </trkpt>
      <trkpt lat="44.38837" lon="4.32483">
        <ele>460</ele>
        <time>2014-07-14T09:59:49Z</time>
      </trkpt>
      <trkpt lat="44.38821" lon="4.32458">
        <ele>456</ele>
        <time>2014-07-14T09:59:55Z</time>
      </trkpt>
      <trkpt lat="44.38777" lon="4.32449">
        <ele>454</ele>
        <time>2014-07-14T10:00:16Z</time>
      </trkpt>
      <trkpt lat="44.38717" lon="4.32444">
        <ele>444</ele>
        <time>2014-07-14T10:00:37Z</time>
      </trkpt>
      <trkpt lat="44.38712" lon="4.32442">
        <ele>444</ele>
        <time>2014-07-14T10:00:39Z</time>
      </trkpt>
      <trkpt lat="44.38693" lon="4.32449">
        <ele>442</ele>
        <time>2014-07-14T10:00:47Z</time>
      </trkpt>
      <trkpt lat="44.38682" lon="4.32448">
        <ele>442</ele>
        <time>2014-07-14T10:00:50Z</time>
      </trkpt>
      <trkpt lat="44.38658" lon="4.32446">
        <ele>433</ele>
        <time>2014-07-14T10:00:57Z</time>
      </trkpt>
      <trkpt lat="44.38644" lon="4.32448">
        <ele>431</ele>
        <time>2014-07-14T10:01:01Z</time>
      </trkpt>
      <trkpt lat="44.38605" lon="4.32453">
        <ele>425</ele>
        <time>2014-07-14T10:01:12Z</time>
      </trkpt>
      <trkpt lat="44.38602" lon="4.32452">
        <ele>425</ele>
        <time>2014-07-14T10:01:13Z</time>
      </trkpt>
      <trkpt lat="44.38598" lon="4.32443">
        <ele>426</ele>
        <time>2014-07-14T10:01:16Z</time>
      </trkpt>
      <trkpt lat="44.38591" lon="4.32407">
        <ele>435</ele>
        <time>2014-07-14T10:01:26Z</time>
      </trkpt>
      <trkpt lat="44.38586" lon="4.32387">
        <ele>442</ele>
        <time>2014-07-14T10:01:32Z</time>
      </trkpt>
      <trkpt lat="44.3857" lon="4.32355">
        <ele>429</ele>
        <time>2014-07-14T10:01:46Z</time>
      </trkpt>
      <trkpt lat="44.38558" lon="4.32349">
        <ele>426</ele>
        <time>2014-07-14T10:01:50Z</time>
      </trkpt>
      <trkpt lat="44.38544" lon="4.32338">
        <ele>423</ele>
        <time>2014-07-14T10:02:14Z</time>
      </trkpt>
      <trkpt lat="44.3854" lon="4.32335">
        <ele>421</ele>
        <time>2014-07-14T10:02:20Z</time>
      </trkpt>
      <trkpt lat="44.3853" lon="4.32324">
        <ele>430</ele>
        <time>2014-07-14T10:02:27Z</time>
      </trkpt>
      <trkpt lat="44.3851" lon="4.32277">
        <ele>432</ele>
        <time>2014-07-14T10:02:40Z</time>
      </trkpt>
      <trkpt lat="44.38496" lon="4.32247">
        <ele>426</ele>
        <time>2014-07-14T10:02:45Z</time>
      </trkpt>
      <trkpt lat="44.38474" lon="4.32193">
        <ele>429</ele>
        <time>2014-07-14T10:02:57Z</time>
      </trkpt>
      <trkpt lat="44.38471" lon="4.3219">
        <ele>428</ele>
        <time>2014-07-14T10:02:58Z</time>
      </trkpt>
      <trkpt lat="44.38452" lon="4.32189">
        <ele>425</ele>
        <time>2014-07-14T10:03:02Z</time>
      </trkpt>
      <trkpt lat="44.38411" lon="4.32186">
        <ele>413</ele>
        <time>2014-07-14T10:03:12Z</time>
      </trkpt>
      <trkpt lat="44.38388" lon="4.32192">
        <ele>408</ele>
        <time>2014-07-14T10:03:16Z</time>
      </trkpt>
      <trkpt lat="44.38383" lon="4.32192">
        <ele>407</ele>
        <time>2014-07-14T10:03:17Z</time>
      </trkpt>
      <trkpt lat="44.38358" lon="4.32196">
        <ele>404</ele>
        <time>2014-07-14T10:03:23Z</time>
      </trkpt>
      <trkpt lat="44.38339" lon="4.322">
        <ele>403</ele>
        <time>2014-07-14T10:03:27Z</time>
      </trkpt>
      <trkpt lat="44.38324" lon="4.32201">
        <ele>392</ele>
        <time>2014-07-14T10:03:30Z</time>
      </trkpt>
      <trkpt lat="44.38316" lon="4.32198">
        <ele>392</ele>
        <time>2014-07-14T10:03:50Z</time>
      </trkpt>
      <trkpt lat="44.38314" lon="4.32198">
        <ele>391</ele>
        <time>2014-07-14T10:05:34Z</time>
      </trkpt>
      <trkpt lat="44.38296" lon="4.32207">
        <ele>388</ele>
        <time>2014-07-14T10:05:40Z</time>
      </trkpt>
      <trkpt lat="44.38293" lon="4.3221">
        <ele>388</ele>
        <time>2014-07-14T10:05:41Z</time>
      </trkpt>
      <trkpt lat="44.38276" lon="4.32223">
        <ele>385</ele>
        <time>2014-07-14T10:05:46Z</time>
      </trkpt>
      <trkpt lat="44.38272" lon="4.32225">
        <ele>385</ele>
        <time>2014-07-14T10:05:47Z</time>
      </trkpt>
      <trkpt lat="44.38255" lon="4.32241">
        <ele>380</ele>
        <time>2014-07-14T10:05:51Z</time>
      </trkpt>
      <trkpt lat="44.38234" lon="4.32258">
        <ele>371</ele>
        <time>2014-07-14T10:05:55Z</time>
      </trkpt>
      <trkpt lat="44.38221" lon="4.32271">
        <ele>368</ele>
        <time>2014-07-14T10:05:58Z</time>
      </trkpt>
      <trkpt lat="44.38214" lon="4.32279">
        <ele>367</ele>
        <time>2014-07-14T10:06:00Z</time>
      </trkpt>
      <trkpt lat="44.38201" lon="4.32293">
        <ele>366</ele>
        <time>2014-07-14T10:06:04Z</time>
      </trkpt>
      <trkpt lat="44.38192" lon="4.32301">
        <ele>365</ele>
        <time>2014-07-14T10:06:07Z</time>
      </trkpt>
      <trkpt lat="44.38174" lon="4.32322">
        <ele>363</ele>
        <time>2014-07-14T10:06:12Z</time>
      </trkpt>
      <trkpt lat="44.38167" lon="4.32329">
        <ele>363</ele>
        <time>2014-07-14T10:06:14Z</time>
      </trkpt>
      <trkpt lat="44.3815" lon="4.32352">
        <ele>354</ele>
        <time>2014-07-14T10:06:20Z</time>
      </trkpt>
      <trkpt lat="44.38133" lon="4.32377">
        <ele>351</ele>
        <time>2014-07-14T10:06:26Z</time>
      </trkpt>
      <trkpt lat="44.38121" lon="4.32404">
        <ele>350</ele>
        <time>2014-07-14T10:06:35Z</time>
      </trkpt>
      <trkpt lat="44.38167" lon="4.32394">
        <ele>351</ele>
        <time>2014-07-14T10:06:49Z</time>
      </trkpt>
      <trkpt lat="44.38194" lon="4.32387">
        <ele>351</ele>
        <time>2014-07-14T10:06:54Z</time>
      </trkpt>
      <trkpt lat="44.38219" lon="4.32386">
        <ele>350</ele>
        <time>2014-07-14T10:06:58Z</time>
      </trkpt>
      <trkpt lat="44.3826" lon="4.32386">
        <ele>350</ele>
        <time>2014-07-14T10:07:04Z</time>
      </trkpt>
      <trkpt lat="44.38281" lon="4.32388">
        <ele>352</ele>
        <time>2014-07-14T10:07:07Z</time>
      </trkpt>
      <trkpt lat="44.3829" lon="4.32404">
        <ele>351</ele>
        <time>2014-07-14T10:07:12Z</time>
      </trkpt>
      <trkpt lat="44.38268" lon="4.32411">
        <ele>346</ele>
        <time>2014-07-14T10:07:18Z</time>
      </trkpt>
      <trkpt lat="44.38217" lon="4.32431">
        <ele>334</ele>
        <time>2014-07-14T10:07:27Z</time>
      </trkpt>
      <trkpt lat="44.38179" lon="4.32473">
        <ele>330</ele>
        <time>2014-07-14T10:07:36Z</time>
      </trkpt>
      <trkpt lat="44.38166" lon="4.3249">
        <ele>326</ele>
        <time>2014-07-14T10:07:39Z</time>
      </trkpt>
      <trkpt lat="44.38149" lon="4.32515">
        <ele>317</ele>
        <time>2014-07-14T10:07:43Z</time>
      </trkpt>
      <trkpt lat="44.38133" lon="4.32541">
        <ele>314</ele>
        <time>2014-07-14T10:07:47Z</time>
      </trkpt>
      <trkpt lat="44.38125" lon="4.32553">
        <ele>313</ele>
        <time>2014-07-14T10:08:04Z</time>
      </trkpt>
      <trkpt lat="44.38114" lon="4.32566">
        <ele>311</ele>
        <time>2014-07-14T10:08:42Z</time>
      </trkpt>
      <trkpt lat="44.38095" lon="4.32585">
        <ele>300</ele>
        <time>2014-07-14T10:08:46Z</time>
      </trkpt>
      <trkpt lat="44.3809" lon="4.32588">
        <ele>301</ele>
        <time>2014-07-14T10:08:47Z</time>
      </trkpt>
      <trkpt lat="44.38044" lon="4.3261">
        <ele>294</ele>
        <time>2014-07-14T10:08:55Z</time>
      </trkpt>
      <trkpt lat="44.38023" lon="4.32615">
        <ele>294</ele>
        <time>2014-07-14T10:08:58Z</time>
      </trkpt>
      <trkpt lat="44.37933" lon="4.32546">
        <ele>294</ele>
        <time>2014-07-14T10:09:19Z</time>
      </trkpt>
      <trkpt lat="44.37925" lon="4.32497">
        <ele>294</ele>
        <time>2014-07-14T10:09:30Z</time>
      </trkpt>
      <trkpt lat="44.37929" lon="4.3247">
        <ele>302</ele>
        <time>2014-07-14T10:09:34Z</time>
      </trkpt>
      <trkpt lat="44.37935" lon="4.32434">
        <ele>305</ele>
        <time>2014-07-14T10:09:39Z</time>
      </trkpt>
      <trkpt lat="44.37939" lon="4.32397">
        <ele>311</ele>
        <time>2014-07-14T10:09:53Z</time>
      </trkpt>
      <trkpt lat="44.37891" lon="4.32458">
        <ele>297</ele>
        <time>2014-07-14T10:10:16Z</time>
      </trkpt>
      <trkpt lat="44.37871" lon="4.32483">
        <ele>295</ele>
        <time>2014-07-14T10:10:26Z</time>
      </trkpt>
      <trkpt lat="44.37803" lon="4.32541">
        <ele>286</ele>
        <time>2014-07-14T10:10:55Z</time>
      </trkpt>
      <trkpt lat="44.37767" lon="4.32631">
        <ele>277</ele>
        <time>2014-07-14T10:11:14Z</time>
      </trkpt>
      <trkpt lat="44.37749" lon="4.32697">
        <ele>280</ele>
        <time>2014-07-14T10:11:26Z</time>
      </trkpt>
      <trkpt lat="44.37726" lon="4.32767">
        <ele>280</ele>
        <time>2014-07-14T10:11:37Z</time>
      </trkpt>
      <trkpt lat="44.37727" lon="4.32774">
        <ele>279</ele>
        <time>2014-07-14T10:11:39Z</time>
      </trkpt>
      <trkpt lat="44.37732" lon="4.32799">
        <ele>279</ele>
        <time>2014-07-14T10:12:18Z</time>
      </trkpt>
      <trkpt lat="44.37737" lon="4.32814">
        <ele>279</ele>
        <time>2014-07-14T10:12:29Z</time>
      </trkpt>
      <trkpt lat="44.37735" lon="4.3284">
        <ele>278</ele>
        <time>2014-07-14T10:12:36Z</time>
      </trkpt>
      <trkpt lat="44.3773" lon="4.32905">
        <ele>278</ele>
        <time>2014-07-14T10:12:59Z</time>
      </trkpt>
      <trkpt lat="44.37761" lon="4.32913">
        <ele>273</ele>
        <time>2014-07-14T10:13:15Z</time>
      </trkpt>
      <trkpt lat="44.37784" lon="4.32938">
        <ele>271</ele>
        <time>2014-07-14T10:13:25Z</time>
      </trkpt>
      <trkpt lat="44.37797" lon="4.32953">
        <ele>271</ele>
        <time>2014-07-14T10:13:33Z</time>
      </trkpt>
      <trkpt lat="44.37804" lon="4.33013">
        <ele>273</ele>
        <time>2014-07-14T10:13:54Z</time>
      </trkpt>
      <trkpt lat="44.37825" lon="4.33076">
        <ele>275</ele>
        <time>2014-07-14T10:14:18Z</time>
      </trkpt>
      <trkpt lat="44.37829" lon="4.33196">
        <ele>276</ele>
        <time>2014-07-14T10:14:45Z</time>
      </trkpt>
      <trkpt lat="44.37836" lon="4.33236">
        <ele>275</ele>
        <time>2014-07-14T10:14:57Z</time>
      </trkpt>
      <trkpt lat="44.37842" lon="4.33338">
        <ele>278</ele>
        <time>2014-07-14T10:15:25Z</time>
      </trkpt>
      <trkpt lat="44.37821" lon="4.33432">
        <ele>277</ele>
        <time>2014-07-14T10:15:51Z</time>
      </trkpt>
      <trkpt lat="44.37845" lon="4.33465">
        <ele>272</ele>
        <time>2014-07-14T10:16:13Z</time>
      </trkpt>
      <trkpt lat="44.37844" lon="4.33465">
        <ele>272</ele>
        <time>2014-07-14T10:16:16Z</time>
      </trkpt>
      <trkpt lat="44.37817" lon="4.33455">
        <ele>276</ele>
        <time>2014-07-14T10:16:32Z</time>
      </trkpt>
      <trkpt lat="44.37816" lon="4.33458">
        <ele>276</ele>
        <time>2014-07-14T10:16:33Z</time>
      </trkpt>
      <trkpt lat="44.37799" lon="4.33494">
        <ele>276</ele>
        <time>2014-07-14T10:16:40Z</time>
      </trkpt>
      <trkpt lat="44.37778" lon="4.33578">
        <ele>273</ele>
        <time>2014-07-14T10:16:54Z</time>
      </trkpt>
      <trkpt lat="44.37752" lon="4.33619">
        <ele>271</ele>
        <time>2014-07-14T10:17:01Z</time>
      </trkpt>
      <trkpt lat="44.3775" lon="4.33625">
        <ele>271</ele>
        <time>2014-07-14T10:17:02Z</time>
      </trkpt>
      <trkpt lat="44.37753" lon="4.33639">
        <ele>270</ele>
        <time>2014-07-14T10:17:06Z</time>
      </trkpt>
      <trkpt lat="44.37783" lon="4.33662">
        <ele>270</ele>
        <time>2014-07-14T10:17:14Z</time>
      </trkpt>
      <trkpt lat="44.37854" lon="4.33718">
        <ele>258</ele>
        <time>2014-07-14T10:17:30Z</time>
      </trkpt>
      <trkpt lat="44.37905" lon="4.3372">
        <ele>257</ele>
        <time>2014-07-14T10:17:42Z</time>
      </trkpt>
      <trkpt lat="44.37947" lon="4.3374">
        <ele>250</ele>
        <time>2014-07-14T10:17:51Z</time>
      </trkpt>
      <trkpt lat="44.37977" lon="4.33765">
        <ele>246</ele>
        <time>2014-07-14T10:17:57Z</time>
      </trkpt>
      <trkpt lat="44.38003" lon="4.33783">
        <ele>237</ele>
        <time>2014-07-14T10:18:02Z</time>
      </trkpt>
      <trkpt lat="44.38024" lon="4.33804">
        <ele>234</ele>
        <time>2014-07-14T10:18:06Z</time>
      </trkpt>
      <trkpt lat="44.38041" lon="4.33826">
        <ele>232</ele>
        <time>2014-07-14T10:18:10Z</time>
      </trkpt>
      <trkpt lat="44.38051" lon="4.33837">
        <ele>229</ele>
        <time>2014-07-14T10:18:12Z</time>
      </trkpt>
      <trkpt lat="44.3807" lon="4.33866">
        <ele>229</ele>
        <time>2014-07-14T10:18:17Z</time>
      </trkpt>
      <trkpt lat="44.38079" lon="4.33886">
        <ele>229</ele>
        <time>2014-07-14T10:18:20Z</time>
      </trkpt>
      <trkpt lat="44.38089" lon="4.33909">
        <ele>228</ele>
        <time>2014-07-14T10:18:24Z</time>
      </trkpt>
      <trkpt lat="44.38104" lon="4.3397">
        <ele>225</ele>
        <time>2014-07-14T10:18:45Z</time>
      </trkpt>
      <trkpt lat="44.38103" lon="4.33981">
        <ele>226</ele>
        <time>2014-07-14T10:19:05Z</time>
      </trkpt>
      <trkpt lat="44.38116" lon="4.33994">
        <ele>225</ele>
        <time>2014-07-14T10:19:13Z</time>
      </trkpt>
      <trkpt lat="44.38115" lon="4.34016">
        <ele>220</ele>
        <time>2014-07-14T10:19:18Z</time>
      </trkpt>
      <trkpt lat="44.38109" lon="4.34046">
        <ele>218</ele>
        <time>2014-07-14T10:19:25Z</time>
      </trkpt>
      <trkpt lat="44.38113" lon="4.34062">
        <ele>216</ele>
        <time>2014-07-14T10:19:28Z</time>
      </trkpt>
      <trkpt lat="44.38122" lon="4.34084">
        <ele>206</ele>
        <time>2014-07-14T10:19:34Z</time>
      </trkpt>
      <trkpt lat="44.38118" lon="4.34106">
        <ele>205</ele>
        <time>2014-07-14T10:19:38Z</time>
      </trkpt>
      <trkpt lat="44.38136" lon="4.34145">
        <ele>202</ele>
        <time>2014-07-14T10:19:46Z</time>
      </trkpt>
      <trkpt lat="44.38141" lon="4.34169">
        <ele>195</ele>
        <time>2014-07-14T10:19:51Z</time>
      </trkpt>
      <trkpt lat="44.38157" lon="4.34207">
        <ele>193</ele>
        <time>2014-07-14T10:20:02Z</time>
      </trkpt>
      <trkpt lat="44.38158" lon="4.34212">
        <ele>193</ele>
        <time>2014-07-14T10:20:03Z</time>
      </trkpt>
      <trkpt lat="44.3816" lon="4.34217">
        <ele>192</ele>
        <time>2014-07-14T10:20:04Z</time>
      </trkpt>
      <trkpt lat="44.38177" lon="4.34266">
        <ele>183</ele>
        <time>2014-07-14T10:20:12Z</time>
      </trkpt>
      <trkpt lat="44.3819" lon="4.3431">
        <ele>179</ele>
        <time>2014-07-14T10:20:20Z</time>
      </trkpt>
      <trkpt lat="44.38197" lon="4.34357">
        <ele>175</ele>
        <time>2014-07-14T10:20:29Z</time>
      </trkpt>
      <trkpt lat="44.38198" lon="4.34372">
        <ele>174</ele>
        <time>2014-07-14T10:20:34Z</time>
      </trkpt>
      <trkpt lat="44.382" lon="4.34398">
        <ele>173</ele>
        <time>2014-07-14T10:20:40Z</time>
      </trkpt>
      <trkpt lat="44.38204" lon="4.34411">
        <ele>173</ele>
        <time>2014-07-14T10:20:51Z</time>
      </trkpt>
      <trkpt lat="44.38205" lon="4.34411">
        <ele>173</ele>
        <time>2014-07-14T10:21:35Z</time>
      </trkpt>
      <trkpt lat="44.38206" lon="4.34412">
        <ele>173</ele>
        <time>2014-07-14T10:22:11Z</time>
      </trkpt>
      <trkpt lat="44.38229" lon="4.34438">
        <ele>168</ele>
        <time>2014-07-14T10:22:21Z</time>
      </trkpt>
      <trkpt lat="44.38247" lon="4.34459">
        <ele>167</ele>
        <time>2014-07-14T10:22:27Z</time>
      </trkpt>
      <trkpt lat="44.38251" lon="4.34461">
        <ele>166</ele>
        <time>2014-07-14T10:22:28Z</time>
      </trkpt>
      <trkpt lat="44.38263" lon="4.34491">
        <ele>164</ele>
        <time>2014-07-14T10:22:35Z</time>
      </trkpt>
      <trkpt lat="44.38271" lon="4.34496">
        <ele>164</ele>
        <time>2014-07-14T10:22:38Z</time>
      </trkpt>
      <trkpt lat="44.38273" lon="4.34498">
        <ele>164</ele>
        <time>2014-07-14T10:22:39Z</time>
      </trkpt>
      <trkpt lat="44.38284" lon="4.345">
        <ele>165</ele>
        <time>2014-07-14T10:22:44Z</time>
      </trkpt>
      <trkpt lat="44.38292" lon="4.34514">
        <ele>163</ele>
        <time>2014-07-14T10:22:49Z</time>
      </trkpt>
      <trkpt lat="44.38303" lon="4.34529">
        <ele>163</ele>
        <time>2014-07-14T10:22:55Z</time>
      </trkpt>
      <trkpt lat="44.38302" lon="4.34529">
        <ele>163</ele>
        <time>2014-07-14T10:23:13Z</time>
      </trkpt>
      <trkpt lat="44.38303" lon="4.34536">
        <ele>162</ele>
        <time>2014-07-14T10:23:23Z</time>
      </trkpt>
      <trkpt lat="44.38299" lon="4.34555">
        <ele>162</ele>
        <time>2014-07-14T10:23:33Z</time>
      </trkpt>
      <trkpt lat="44.38311" lon="4.34596">
        <ele>163</ele>
        <time>2014-07-14T10:23:52Z</time>
      </trkpt>
      <trkpt lat="44.38313" lon="4.34606">
        <ele>163</ele>
        <time>2014-07-14T10:23:58Z</time>
      </trkpt>
      <trkpt lat="44.38327" lon="4.34624">
        <ele>163</ele>
        <time>2014-07-14T10:24:14Z</time>
      </trkpt>
      <trkpt lat="44.38342" lon="4.34631">
        <ele>161</ele>
        <time>2014-07-14T10:24:25Z</time>
      </trkpt>
      <trkpt lat="44.38362" lon="4.34629">
        <ele>161</ele>
        <time>2014-07-14T10:24:54Z</time>
      </trkpt>
      <trkpt lat="44.38366" lon="4.34635">
        <ele>161</ele>
        <time>2014-07-14T10:27:26Z</time>
      </trkpt>
      <trkpt lat="44.38368" lon="4.34637">
        <ele>161</ele>
        <time>2014-07-14T10:29:12Z</time>
      </trkpt>
      <trkpt lat="44.38377" lon="4.34626">
        <ele>162</ele>
        <time>2014-07-14T10:30:43Z</time>
      </trkpt>
      <trkpt lat="44.38419" lon="4.34627">
        <ele>166</ele>
        <time>2014-07-14T10:31:01Z</time>
      </trkpt>
      <trkpt lat="44.38446" lon="4.34641">
        <ele>166</ele>
        <time>2014-07-14T10:31:15Z</time>
      </trkpt>
      <trkpt lat="44.38464" lon="4.34643">
        <ele>166</ele>
        <time>2014-07-14T10:31:23Z</time>
      </trkpt>
      <trkpt lat="44.38472" lon="4.34656">
        <ele>166</ele>
        <time>2014-07-14T10:31:29Z</time>
      </trkpt>
      <trkpt lat="44.38522" lon="4.34708">
        <ele>166</ele>
        <time>2014-07-14T10:31:55Z</time>
      </trkpt>
      <trkpt lat="44.38558" lon="4.34743">
        <ele>167</ele>
        <time>2014-07-14T10:32:07Z</time>
      </trkpt>
      <trkpt lat="44.38564" lon="4.3475">
        <ele>161</ele>
        <time>2014-07-14T10:32:09Z</time>
      </trkpt>
      <trkpt lat="44.38652" lon="4.3484">
        <ele>157</ele>
        <time>2014-07-14T10:32:36Z</time>
      </trkpt>
      <trkpt lat="44.38657" lon="4.34846">
        <ele>157</ele>
        <time>2014-07-14T10:32:37Z</time>
      </trkpt>
      <trkpt lat="44.38681" lon="4.34878">
        <ele>154</ele>
        <time>2014-07-14T10:32:42Z</time>
      </trkpt>
      <trkpt lat="44.38696" lon="4.34899">
        <ele>153</ele>
        <time>2014-07-14T10:32:45Z</time>
      </trkpt>
      <trkpt lat="44.38718" lon="4.34915">
        <ele>153</ele>
        <time>2014-07-14T10:32:50Z</time>
      </trkpt>
      <trkpt lat="44.38731" lon="4.34911">
        <ele>154</ele>
        <time>2014-07-14T10:32:53Z</time>
      </trkpt>
      <trkpt lat="44.38763" lon="4.34977">
        <ele>157</ele>
        <time>2014-07-14T10:33:09Z</time>
      </trkpt>
      <trkpt lat="44.38787" lon="4.35026">
        <ele>154</ele>
        <time>2014-07-14T10:33:20Z</time>
      </trkpt>
      <trkpt lat="44.38796" lon="4.35044">
        <ele>153</ele>
        <time>2014-07-14T10:33:23Z</time>
      </trkpt>
      <trkpt lat="44.38857" lon="4.3513">
        <ele>149</ele>
        <time>2014-07-14T10:33:39Z</time>
      </trkpt>
      <trkpt lat="44.38879" lon="4.35162">
        <ele>148</ele>
        <time>2014-07-14T10:33:43Z</time>
      </trkpt>
      <trkpt lat="44.38886" lon="4.35168">
        <ele>142</ele>
        <time>2014-07-14T10:33:44Z</time>
      </trkpt>
      <trkpt lat="44.389" lon="4.35179">
        <ele>143</ele>
        <time>2014-07-14T10:33:46Z</time>
      </trkpt>
      <trkpt lat="44.38905" lon="4.35186">
        <ele>143</ele>
        <time>2014-07-14T10:33:47Z</time>
      </trkpt>
      <trkpt lat="44.38964" lon="4.35262">
        <ele>138</ele>
        <time>2014-07-14T10:34:00Z</time>
      </trkpt>
      <trkpt lat="44.39012" lon="4.35337">
        <ele>132</ele>
        <time>2014-07-14T10:34:12Z</time>
      </trkpt>
      <trkpt lat="44.39052" lon="4.35353">
        <ele>131</ele>
        <time>2014-07-14T10:34:18Z</time>
      </trkpt>
      <trkpt lat="44.39088" lon="4.35406">
        <ele>132</ele>
        <time>2014-07-14T10:34:26Z</time>
      </trkpt>
      <trkpt lat="44.39109" lon="4.35465">
        <ele>134</ele>
        <time>2014-07-14T10:34:39Z</time>
      </trkpt>
      <trkpt lat="44.39132" lon="4.35534">
        <ele>133</ele>
        <time>2014-07-14T10:34:58Z</time>
      </trkpt>
      <trkpt lat="44.39211" lon="4.35718">
        <ele>133</ele>
        <time>2014-07-14T10:35:36Z</time>
      </trkpt>
      <trkpt lat="44.39315" lon="4.35873">
        <ele>127</ele>
        <time>2014-07-14T10:36:08Z</time>
      </trkpt>
      <trkpt lat="44.39366" lon="4.35925">
        <ele>125</ele>
        <time>2014-07-14T10:36:21Z</time>
      </trkpt>
      <trkpt lat="44.3937" lon="4.35929">
        <ele>125</ele>
        <time>2014-07-14T10:36:22Z</time>
      </trkpt>
      <trkpt lat="44.39457" lon="4.36026">
        <ele>127</ele>
        <time>2014-07-14T10:36:44Z</time>
      </trkpt>
      <trkpt lat="44.3946" lon="4.36032">
        <ele>127</ele>
        <time>2014-07-14T10:36:45Z</time>
      </trkpt>
      <trkpt lat="44.39464" lon="4.36053">
        <ele>126</ele>
        <time>2014-07-14T10:36:48Z</time>
      </trkpt>
      <trkpt lat="44.39463" lon="4.36088">
        <ele>120</ele>
        <time>2014-07-14T10:36:53Z</time>
      </trkpt>
      <trkpt lat="44.39491" lon="4.36157">
        <ele>119</ele>
        <time>2014-07-14T10:37:04Z</time>
      </trkpt>
      <trkpt lat="44.39543" lon="4.36232">
        <ele>118</ele>
        <time>2014-07-14T10:37:18Z</time>
      </trkpt>
      <trkpt lat="44.39579" lon="4.3628">
        <ele>115</ele>
        <time>2014-07-14T10:37:26Z</time>
      </trkpt>
      <trkpt lat="44.39613" lon="4.36322">
        <ele>113</ele>
        <time>2014-07-14T10:37:33Z</time>
      </trkpt>
      <trkpt lat="44.39616" lon="4.36329">
        <ele>113</ele>
        <time>2014-07-14T10:37:34Z</time>
      </trkpt>
      <trkpt lat="44.39642" lon="4.36392">
        <ele>111</ele>
        <time>2014-07-14T10:37:42Z</time>
      </trkpt>
      <trkpt lat="44.39647" lon="4.36399">
        <ele>111</ele>
        <time>2014-07-14T10:37:43Z</time>
      </trkpt>
      <trkpt lat="44.39715" lon="4.36467">
        <ele>110</ele>
        <time>2014-07-14T10:37:58Z</time>
      </trkpt>
      <trkpt lat="44.39724" lon="4.36476">
        <ele>110</ele>
        <time>2014-07-14T10:38:00Z</time>
      </trkpt>
      <trkpt lat="44.39801" lon="4.36617">
        <ele>110</ele>
        <time>2014-07-14T10:38:27Z</time>
      </trkpt>
      <trkpt lat="44.39835" lon="4.36718">
        <ele>114</ele>
        <time>2014-07-14T10:38:48Z</time>
      </trkpt>
      <trkpt lat="44.39838" lon="4.36736">
        <ele>112</ele>
        <time>2014-07-14T10:38:51Z</time>
      </trkpt>
      <trkpt lat="44.39837" lon="4.36749">
        <ele>108</ele>
        <time>2014-07-14T10:38:53Z</time>
      </trkpt>
      <trkpt lat="44.39835" lon="4.36786">
        <ele>113</ele>
        <time>2014-07-14T10:38:59Z</time>
      </trkpt>
      <trkpt lat="44.39842" lon="4.3683">
        <ele>109</ele>
        <time>2014-07-14T10:39:05Z</time>
      </trkpt>
      <trkpt lat="44.39853" lon="4.36882">
        <ele>110</ele>
        <time>2014-07-14T10:39:11Z</time>
      </trkpt>
      <trkpt lat="44.39853" lon="4.36889">
        <ele>109</ele>
        <time>2014-07-14T10:39:12Z</time>
      </trkpt>
      <trkpt lat="44.39844" lon="4.3691">
        <ele>104</ele>
        <time>2014-07-14T10:39:15Z</time>
      </trkpt>
      <trkpt lat="44.39829" lon="4.36933">
        <ele>100</ele>
        <time>2014-07-14T10:39:18Z</time>
      </trkpt>
      <trkpt lat="44.39823" lon="4.36941">
        <ele>101</ele>
        <time>2014-07-14T10:39:19Z</time>
      </trkpt>
      <trkpt lat="44.39776" lon="4.36973">
        <ele>106</ele>
        <time>2014-07-14T10:39:26Z</time>
      </trkpt>
      <trkpt lat="44.39781" lon="4.3701">
        <ele>115</ele>
        <time>2014-07-14T10:39:32Z</time>
      </trkpt>
      <trkpt lat="44.39818" lon="4.37061">
        <ele>112</ele>
        <time>2014-07-14T10:39:47Z</time>
      </trkpt>
      <trkpt lat="44.39835" lon="4.37174">
        <ele>112</ele>
        <time>2014-07-14T10:40:15Z</time>
      </trkpt>
      <trkpt lat="44.39835" lon="4.3721">
        <ele>111</ele>
        <time>2014-07-14T10:40:21Z</time>
      </trkpt>
      <trkpt lat="44.39837" lon="4.37244">
        <ele>116</ele>
        <time>2014-07-14T10:40:26Z</time>
      </trkpt>
      <trkpt lat="44.39835" lon="4.37311">
        <ele>112</ele>
        <time>2014-07-14T10:40:43Z</time>
      </trkpt>
      <trkpt lat="44.3983" lon="4.37373">
        <ele>122</ele>
        <time>2014-07-14T10:40:53Z</time>
      </trkpt>
      <trkpt lat="44.39829" lon="4.3738">
        <ele>122</ele>
        <time>2014-07-14T10:40:54Z</time>
      </trkpt>
      <trkpt lat="44.39804" lon="4.37486">
        <ele>113</ele>
        <time>2014-07-14T10:41:10Z</time>
      </trkpt>
      <trkpt lat="44.39811" lon="4.37527">
        <ele>105</ele>
        <time>2014-07-14T10:41:15Z</time>
      </trkpt>
      <trkpt lat="44.39814" lon="4.37535">
        <ele>104</ele>
        <time>2014-07-14T10:41:16Z</time>
      </trkpt>
      <trkpt lat="44.3982" lon="4.37559">
        <ele>102</ele>
        <time>2014-07-14T10:41:20Z</time>
      </trkpt>
      <trkpt lat="44.39795" lon="4.37575">
        <ele>103</ele>
        <time>2014-07-14T10:41:28Z</time>
      </trkpt>
      <trkpt lat="44.39691" lon="4.37579">
        <ele>107</ele>
        <time>2014-07-14T10:41:55Z</time>
      </trkpt>
      <trkpt lat="44.39629" lon="4.37601">
        <ele>104</ele>
        <time>2014-07-14T10:42:12Z</time>
      </trkpt>
      <trkpt lat="44.39603" lon="4.37598">
        <ele>106</ele>
        <time>2014-07-14T10:42:23Z</time>
      </trkpt>
      <trkpt lat="44.39602" lon="4.37594">
        <ele>106</ele>
        <time>2014-07-14T10:42:24Z</time>
      </trkpt>
      <trkpt lat="44.39603" lon="4.37566">
        <ele>111</ele>
        <time>2014-07-14T10:42:32Z</time>
      </trkpt>
      <trkpt lat="44.39604" lon="4.37562">
        <ele>111</ele>
        <time>2014-07-14T10:42:33Z</time>
      </trkpt>
      <trkpt lat="44.39595" lon="4.37553">
        <ele>112</ele>
        <time>2014-07-14T10:42:40Z</time>
      </trkpt>
      <trkpt lat="44.39583" lon="4.37564">
        <ele>111</ele>
        <time>2014-07-14T10:42:46Z</time>
      </trkpt>
      <trkpt lat="44.39582" lon="4.37564">
        <ele>113</ele>
        <time>2014-07-14T10:42:47Z</time>
      </trkpt>
      <trkpt lat="44.39577" lon="4.37556">
        <ele>114</ele>
        <time>2014-07-14T10:43:17Z</time>
      </trkpt>
      <trkpt lat="44.39577" lon="4.37556">
        <ele>114</ele>
        <time>2014-07-14T10:43:18Z</time>
      </trkpt>
    </trkseg>
  </trk>
</gpx>